Observation data for Dozier on 08/20/2019      Previous  Date  Next       Current Mesonet Observations  Soil Data  Daily Summary Page  Observations in Plain Language
KDO1 200500Z 13003KT 29/19 A3002 RMK A01 T02860185  RH  054%=      5-min Rain = 0
KDO1 200501Z 13003KT 29/19 A3002 RMK A01 T02850185  RH  055%=      5-min Rain = 0
KDO1 200502Z 13003KT 28/19 A3002 RMK A01 T02840185  RH  055%=      5-min Rain = 0
KDO1 200503Z 13003KT 28/19 A3002 RMK A01 T02830185  RH  055%=      5-min Rain = 0
KDO1 200504Z 14002KT 28/19 A3002 RMK A01 T02830185  RH  055%=      5-min Rain = 0
KDO1 200505Z 15003KT 28/18 A3002 RMK A01 T02820184  RH  055%=      5-min Rain = 0
KDO1 200506Z 16003KT 28/19 A3002 RMK A01 T02820185  RH  055%=      5-min Rain = 0
KDO1 200507Z 16004KT 28/19 A3002 RMK A01 T02820185  RH  055%=      5-min Rain = 0
KDO1 200508Z 17004KT 28/18 A3002 RMK A01 T02820184  RH  055%=      5-min Rain = 0
KDO1 200509Z 16004KT 28/18 A3002 RMK A01 T02830184  RH  055%=      5-min Rain = 0
KDO1 200510Z 17004KT 28/18 A3002 RMK A01 T02840183  RH  055%=      5-min Rain = 0
KDO1 200511Z 17004KT 28/18 A3002 RMK A01 T02840184  RH  054%=      5-min Rain = 0
KDO1 200512Z 16005KT 29/18 A3002 RMK A01 T02850183  RH  054%=      5-min Rain = 0
KDO1 200513Z 16004KT 29/18 A3002 RMK A01 T02860183  RH  054%=      5-min Rain = 0
KDO1 200514Z 16004KT 29/18 A3002 RMK A01 T02860184  RH  054%=      5-min Rain = 0
KDO1 200515Z 16005KT 29/18 A3002 RMK A01 T02860183  RH  054%=      5-min Rain = 0
KDO1 200516Z 16005KT 29/18 A3002 RMK A01 T02860183  RH  054%=      5-min Rain = 0
KDO1 200517Z 15004KT 29/18 A3002 RMK A01 T02860183  RH  054%=      5-min Rain = 0
KDO1 200518Z 16004KT 29/18 A3002 RMK A01 T02860183  RH  054%=      5-min Rain = 0
KDO1 200519Z 15005KT 29/18 A3002 RMK A01 T02850183  RH  054%=      5-min Rain = 0
KDO1 200520Z 15004KT 29/18 A3002 RMK A01 T02850184  RH  054%=      5-min Rain = 0
KDO1 200521Z 16005KT 29/18 A3002 RMK A01 T02850184  RH  054%=      5-min Rain = 0
KDO1 200522Z 16005KT 28/18 A3002 RMK A01 T02840184  RH  054%=      5-min Rain = 0
KDO1 200523Z 16004KT 28/18 A3002 RMK A01 T02840184  RH  055%=      5-min Rain = 0
KDO1 200524Z 16004KT 28/18 A3002 RMK A01 T02840184  RH  055%=      5-min Rain = 0
KDO1 200525Z 16004KT 28/18 A3002 RMK A01 T02830184  RH  055%=      5-min Rain = 0
KDO1 200526Z 16004KT 28/18 A3002 RMK A01 T02830184  RH  055%=      5-min Rain = 0
KDO1 200527Z 16004KT 28/18 A3002 RMK A01 T02820184  RH  055%=      5-min Rain = 0
KDO1 200528Z 16004KT 28/18 A3002 RMK A01 T02820184  RH  055%=      5-min Rain = 0
KDO1 200529Z 16004KT 28/18 A3002 RMK A01 T02820184  RH  055%=      5-min Rain = 0
KDO1 200530Z 15004KT 28/18 A3002 RMK A01 T02810184  RH  055%=      5-min Rain = 0
KDO1 200531Z 15004KT 28/18 A3002 RMK A01 T02810184  RH  056%=      5-min Rain = 0
KDO1 200532Z 14005KT 28/18 A3003 RMK A01 T02810184  RH  056%=      5-min Rain = 0
KDO1 200533Z 13005KT 28/18 A3003 RMK A01 T02800184  RH  056%=      5-min Rain = 0
KDO1 200534Z 13005KT 28/18 A3003 RMK A01 T02790184  RH  056%=      5-min Rain = 0
KDO1 200535Z 13004KT 28/18 A3003 RMK A01 T02780184  RH  056%=      5-min Rain = 0
KDO1 200536Z 14004KT 28/18 A3003 RMK A01 T02770184  RH  057%=      5-min Rain = 0
KDO1 200537Z 14004KT 28/18 A3003 RMK A01 T02770184  RH  057%=      5-min Rain = 0
KDO1 200538Z 14004KT 28/18 A3003 RMK A01 T02760184  RH  057%=      5-min Rain = 0
KDO1 200539Z 13005KT 28/18 A3003 RMK A01 T02760183  RH  057%=      5-min Rain = 0
KDO1 200540Z 13005KT 28/18 A3003 RMK A01 T02750183  RH  057%=      5-min Rain = 0
KDO1 200541Z 13005KT 28/18 A3003 RMK A01 T02750183  RH  057%=      5-min Rain = 0
KDO1 200542Z 13005KT 28/18 A3003 RMK A01 T02750183  RH  057%=      5-min Rain = 0
KDO1 200543Z 14004KT 28/18 A3003 RMK A01 T02750183  RH  058%=      5-min Rain = 0
KDO1 200544Z 14004KT 27/18 A3003 RMK A01 T02740183  RH  058%=      5-min Rain = 0
KDO1 200545Z 14004KT 27/18 A3003 RMK A01 T02740183  RH  058%=      5-min Rain = 0
KDO1 200546Z 14005KT 27/18 A3003 RMK A01 T02740183  RH  058%=      5-min Rain = 0
KDO1 200547Z 14006KT 27/18 A3003 RMK A01 T02740183  RH  058%=      5-min Rain = 0
KDO1 200548Z 15006KT 27/18 A3003 RMK A01 T02740183  RH  058%=      5-min Rain = 0
KDO1 200549Z 15005KT 27/18 A3003 RMK A01 T02740183  RH  058%=      5-min Rain = 0
KDO1 200550Z 15005KT 28/18 A3003 RMK A01 T02750183  RH  057%=      5-min Rain = 0
KDO1 200551Z 15006KT 28/18 A3003 RMK A01 T02760183  RH  057%=      5-min Rain = 0
KDO1 200552Z 15007KT 28/18 A3003 RMK A01 T02770183  RH  057%=      5-min Rain = 0
KDO1 200553Z 15006KT 28/18 A3003 RMK A01 T02770183  RH  056%=      5-min Rain = 0
KDO1 200554Z 16006KT 28/18 A3003 RMK A01 T02780183  RH  056%=      5-min Rain = 0
KDO1 200555Z 15006KT 28/18 A3003 RMK A01 T02780183  RH  056%=      5-min Rain = 0
KDO1 200556Z 15005KT 28/18 A3003 RMK A01 T02790183  RH  056%=      5-min Rain = 0
KDO1 200557Z 14005KT 28/18 A3003 RMK A01 T02790183  RH  056%=      5-min Rain = 0
KDO1 200558Z 13004KT 28/18 A3003 RMK A01 T02790183  RH  056%=      5-min Rain = 0
KDO1 200559Z 14003KT 28/18 A3003 RMK A01 T02780183  RH  056%=      5-min Rain = 0
KDO1 200600Z 14003KT 28/18 A3003 RMK A01 T02770183  RH  056%=      5-min Rain = 0
KDO1 200601Z 15003KT 28/18 A3003 RMK A01 T02760183  RH  057%=      5-min Rain = 0
KDO1 200602Z 15003KT 28/18 A3003 RMK A01 T02750182  RH  057%=      5-min Rain = 0
KDO1 200603Z 14003KT 28/18 A3003 RMK A01 T02750183  RH  057%=      5-min Rain = 0
KDO1 200604Z 14003KT 27/18 A3003 RMK A01 T02740183  RH  057%=      5-min Rain = 0
KDO1 200605Z 12003KT 27/18 A3003 RMK A01 T02740183  RH  058%=      5-min Rain = 0
KDO1 200606Z 11002KT 27/18 A3003 RMK A01 T02730183  RH  058%=      5-min Rain = 0
KDO1 200607Z 11002KT 27/18 A3003 RMK A01 T02720183  RH  058%=      5-min Rain = 0
KDO1 200608Z 11002KT 27/18 A3003 RMK A01 T02720183  RH  058%=      5-min Rain = 0
KDO1 200609Z 13002KT 27/18 A3003 RMK A01 T02710182  RH  058%=      5-min Rain = 0
KDO1 200610Z 13002KT 27/18 A3003 RMK A01 T02710182  RH  058%=      5-min Rain = 0
KDO1 200611Z 13002KT 27/18 A3003 RMK A01 T02710183  RH  059%=      5-min Rain = 0
KDO1 200612Z 13002KT 27/18 A3003 RMK A01 T02700182  RH  059%=      5-min Rain = 0
KDO1 200613Z 12002KT 27/18 A3003 RMK A01 T02690182  RH  059%=      5-min Rain = 0
KDO1 200614Z 12002KT 27/18 A3003 RMK A01 T02690183  RH  059%=      5-min Rain = 0
KDO1 200615Z 12002KT 27/18 A3003 RMK A01 T02690183  RH  059%=      5-min Rain = 0
KDO1 200616Z 12002KT 27/18 A3003 RMK A01 T02680183  RH  060%=      5-min Rain = 0
KDO1 200617Z 12002KT 27/18 A3003 RMK A01 T02680183  RH  060%=      5-min Rain = 0
KDO1 200618Z 12003KT 27/18 A3003 RMK A01 T02670183  RH  060%=      5-min Rain = 0
KDO1 200619Z 12003KT 27/18 A3003 RMK A01 T02670183  RH  060%=      5-min Rain = 0
KDO1 200620Z 12003KT 27/18 A3003 RMK A01 T02670182  RH  060%=      5-min Rain = 0
KDO1 200621Z 12003KT 27/18 A3003 RMK A01 T02670183  RH  060%=      5-min Rain = 0
KDO1 200622Z 12004KT 27/18 A3003 RMK A01 T02670182  RH  060%=      5-min Rain = 0
KDO1 200623Z 12003KT 27/18 A3003 RMK A01 T02670183  RH  060%=      5-min Rain = 0
KDO1 200624Z 13003KT 27/18 A3003 RMK A01 T02670183  RH  060%=      5-min Rain = 0
KDO1 200625Z 13004KT 27/18 A3003 RMK A01 T02670183  RH  060%=      5-min Rain = 0
KDO1 200626Z 14004KT 27/18 A3003 RMK A01 T02670183  RH  060%=      5-min Rain = 0
KDO1 200627Z 13005KT 27/18 A3003 RMK A01 T02670183  RH  060%=      5-min Rain = 0
KDO1 200628Z 14005KT 27/18 A3003 RMK A01 T02670182  RH  060%=      5-min Rain = 0
KDO1 200629Z 14006KT 27/18 A3003 RMK A01 T02680182  RH  059%=      5-min Rain = 0
KDO1 200630Z 15005KT 27/18 A3003 RMK A01 T02680181  RH  059%=      5-min Rain = 0
KDO1 200631Z 14005KT 27/18 A3003 RMK A01 T02690182  RH  059%=      5-min Rain = 0
KDO1 200632Z 15005KT 27/18 A3004 RMK A01 T02690181  RH  059%=      5-min Rain = 0
KDO1 200633Z 15005KT 27/18 A3003 RMK A01 T02690181  RH  059%=      5-min Rain = 0
KDO1 200634Z 15005KT 27/18 A3003 RMK A01 T02700182  RH  059%=      5-min Rain = 0
KDO1 200635Z 15005KT 27/18 A3003 RMK A01 T02700182  RH  059%=      5-min Rain = 0
KDO1 200636Z 15005KT 27/18 A3003 RMK A01 T02700182  RH  058%=      5-min Rain = 0
KDO1 200637Z 15005KT 27/18 A3003 RMK A01 T02700182  RH  059%=      5-min Rain = 0
KDO1 200638Z 16004KT 27/18 A3003 RMK A01 T02700182  RH  059%=      5-min Rain = 0
KDO1 200639Z 15005KT 27/18 A3003 RMK A01 T02700182  RH  059%=      5-min Rain = 0
KDO1 200640Z 15005KT 27/18 A3003 RMK A01 T02700182  RH  059%=      5-min Rain = 0
KDO1 200641Z 16005KT 27/18 A3003 RMK A01 T02700182  RH  059%=      5-min Rain = 0
KDO1 200642Z 16005KT 27/18 A3003 RMK A01 T02700182  RH  059%=      5-min Rain = 0
KDO1 200643Z 16005KT 27/18 A3003 RMK A01 T02700182  RH  059%=      5-min Rain = 0
KDO1 200644Z 16005KT 27/18 A3003 RMK A01 T02700182  RH  059%=      5-min Rain = 0
KDO1 200645Z 16005KT 27/18 A3003 RMK A01 T02700182  RH  059%=      5-min Rain = 0
KDO1 200646Z 16005KT 27/18 A3003 RMK A01 T02700182  RH  059%=      5-min Rain = 0
KDO1 200647Z 16005KT 27/18 A3003 RMK A01 T02700182  RH  059%=      5-min Rain = 0
KDO1 200648Z 16005KT 27/18 A3003 RMK A01 T02700182  RH  059%=      5-min Rain = 0
KDO1 200649Z 16005KT 27/18 A3003 RMK A01 T02700182  RH  059%=      5-min Rain = 0
KDO1 200650Z 17005KT 27/18 A3003 RMK A01 T02690182  RH  059%=      5-min Rain = 0
KDO1 200651Z 17005KT 27/18 A3003 RMK A01 T02690182  RH  059%=      5-min Rain = 0
KDO1 200652Z 17005KT 27/18 A3003 RMK A01 T02690183  RH  059%=      5-min Rain = 0
KDO1 200653Z 17005KT 27/18 A3003 RMK A01 T02690182  RH  059%=      5-min Rain = 0
KDO1 200654Z 17005KT 27/18 A3003 RMK A01 T02680182  RH  059%=      5-min Rain = 0
KDO1 200655Z 17004KT 27/18 A3003 RMK A01 T02680183  RH  059%=      5-min Rain = 0
KDO1 200656Z 17004KT 27/18 A3003 RMK A01 T02680182  RH  060%=      5-min Rain = 0
KDO1 200657Z 17004KT 27/18 A3003 RMK A01 T02680183  RH  060%=      5-min Rain = 0
KDO1 200658Z 17004KT 27/18 A3003 RMK A01 T02670183  RH  060%=      5-min Rain = 0
KDO1 200659Z 18004KT 27/18 A3003 RMK A01 T02670183  RH  060%=      5-min Rain = 0
KDO1 200700Z 18003KT 27/18 A3003 RMK A01 T02660183  RH  060%=      5-min Rain = 0
KDO1 200701Z 17003KT 27/18 A3003 RMK A01 T02650182  RH  061%=      5-min Rain = 0
KDO1 200702Z 18004KT 26/18 A3003 RMK A01 T02640182  RH  061%=      5-min Rain = 0
KDO1 200703Z 17004KT 26/18 A3003 RMK A01 T02640182  RH  061%=      5-min Rain = 0
KDO1 200704Z 17004KT 26/18 A3003 RMK A01 T02630181  RH  061%=      5-min Rain = 0
KDO1 200705Z 17004KT 26/18 A3003 RMK A01 T02630181  RH  061%=      5-min Rain = 0
KDO1 200706Z 17004KT 26/18 A3003 RMK A01 T02620181  RH  061%=      5-min Rain = 0
KDO1 200707Z 17004KT 26/18 A3003 RMK A01 T02620181  RH  061%=      5-min Rain = 0
KDO1 200708Z 17003KT 26/18 A3003 RMK A01 T02620181  RH  061%=      5-min Rain = 0
KDO1 200709Z 18004KT 26/18 A3003 RMK A01 T02620181  RH  061%=      5-min Rain = 0
KDO1 200710Z 18003KT 26/18 A3003 RMK A01 T02610181  RH  061%=      5-min Rain = 0
KDO1 200711Z 18004KT 26/18 A3003 RMK A01 T02600181  RH  061%=      5-min Rain = 0
KDO1 200712Z 18003KT 26/18 A3003 RMK A01 T02600181  RH  062%=      5-min Rain = 0
KDO1 200713Z 18003KT 26/18 A3003 RMK A01 T02600181  RH  062%=      5-min Rain = 0
KDO1 200714Z 18003KT 26/18 A3003 RMK A01 T02600181  RH  062%=      5-min Rain = 0
KDO1 200715Z 18003KT 26/18 A3003 RMK A01 T02600181  RH  062%=      5-min Rain = 0
KDO1 200716Z 17003KT 26/18 A3003 RMK A01 T02600181  RH  062%=      5-min Rain = 0
KDO1 200717Z 17003KT 26/18 A3003 RMK A01 T02600181  RH  062%=      5-min Rain = 0
KDO1 200718Z 17004KT 26/18 A3003 RMK A01 T02600181  RH  062%=      5-min Rain = 0
KDO1 200719Z 17004KT 26/18 A3003 RMK A01 T02610181  RH  062%=      5-min Rain = 0
KDO1 200720Z 16004KT 26/18 A3003 RMK A01 T02610181  RH  061%=      5-min Rain = 0
KDO1 200721Z 16004KT 26/18 A3003 RMK A01 T02610181  RH  061%=      5-min Rain = 0
KDO1 200722Z 16004KT 26/18 A3003 RMK A01 T02610181  RH  061%=      5-min Rain = 0
KDO1 200723Z 16004KT 26/18 A3003 RMK A01 T02620181  RH  061%=      5-min Rain = 0
KDO1 200724Z 17004KT 26/18 A3003 RMK A01 T02620181  RH  061%=      5-min Rain = 0
KDO1 200725Z 17004KT 26/18 A3003 RMK A01 T02620181  RH  061%=      5-min Rain = 0
KDO1 200726Z 17004KT 26/18 A3003 RMK A01 T02620181  RH  061%=      5-min Rain = 0
KDO1 200727Z 17005KT 26/18 A3003 RMK A01 T02620181  RH  061%=      5-min Rain = 0
KDO1 200728Z 17004KT 26/18 A3003 RMK A01 T02620181  RH  061%=      5-min Rain = 0
KDO1 200729Z 17005KT 26/18 A3003 RMK A01 T02620181  RH  061%=      5-min Rain = 0
KDO1 200730Z 17004KT 26/18 A3003 RMK A01 T02620181  RH  061%=      5-min Rain = 0
KDO1 200731Z 17004KT 26/18 A3003 RMK A01 T02620181  RH  061%=      5-min Rain = 0
KDO1 200732Z 17005KT 26/18 A3003 RMK A01 T02620181  RH  061%=      5-min Rain = 0
KDO1 200733Z 17004KT 26/18 A3003 RMK A01 T02620181  RH  061%=      5-min Rain = 0
KDO1 200734Z 17004KT 26/18 A3003 RMK A01 T02620181  RH  061%=      5-min Rain = 0
KDO1 200735Z 18004KT 26/18 A3003 RMK A01 T02620181  RH  061%=      5-min Rain = 0
KDO1 200736Z 18004KT 26/18 A3003 RMK A01 T02620181  RH  061%=      5-min Rain = 0
KDO1 200737Z 17004KT 26/18 A3003 RMK A01 T02620182  RH  061%=      5-min Rain = 0
KDO1 200738Z 18004KT 26/18 A3003 RMK A01 T02610181  RH  061%=      5-min Rain = 0
KDO1 200739Z 18004KT 26/18 A3003 RMK A01 T02600181  RH  062%=      5-min Rain = 0
KDO1 200740Z 18004KT 26/18 A3003 RMK A01 T02600181  RH  062%=      5-min Rain = 0
KDO1 200741Z 17004KT 26/18 A3003 RMK A01 T02590181  RH  062%=      5-min Rain = 0
KDO1 200742Z 17004KT 26/18 A3003 RMK A01 T02590181  RH  062%=      5-min Rain = 0
KDO1 200743Z 17004KT 26/18 A3003 RMK A01 T02590181  RH  062%=      5-min Rain = 0
KDO1 200744Z 17004KT 26/18 A3003 RMK A01 T02580181  RH  062%=      5-min Rain = 0
KDO1 200745Z 17004KT 26/18 A3003 RMK A01 T02590182  RH  062%=      5-min Rain = 0
KDO1 200746Z 17005KT 26/18 A3003 RMK A01 T02580181  RH  062%=      5-min Rain = 0
KDO1 200747Z 17005KT 26/18 A3003 RMK A01 T02580181  RH  062%=      5-min Rain = 0
KDO1 200748Z 17005KT 26/18 A3003 RMK A01 T02590181  RH  062%=      5-min Rain = 0
KDO1 200749Z 17004KT 26/18 A3003 RMK A01 T02590181  RH  062%=      5-min Rain = 0
KDO1 200750Z 17005KT 26/18 A3003 RMK A01 T02590181  RH  062%=      5-min Rain = 0
KDO1 200751Z 17005KT 26/18 A3003 RMK A01 T02590181  RH  062%=      5-min Rain = 0
KDO1 200752Z 17004KT 26/18 A3003 RMK A01 T02580181  RH  062%=      5-min Rain = 0
KDO1 200753Z 17005KT 26/18 A3003 RMK A01 T02580181  RH  062%=      5-min Rain = 0
KDO1 200754Z 17005KT 26/18 A3003 RMK A01 T02580181  RH  062%=      5-min Rain = 0
KDO1 200755Z 17005KT 26/18 A3003 RMK A01 T02580181  RH  062%=      5-min Rain = 0
KDO1 200756Z 17005KT 26/18 A3003 RMK A01 T02580181  RH  062%=      5-min Rain = 0
KDO1 200757Z 18004KT 26/18 A3003 RMK A01 T02580181  RH  062%=      5-min Rain = 0
KDO1 200758Z 18004KT 26/18 A3003 RMK A01 T02570180  RH  063%=      5-min Rain = 0
KDO1 200759Z 18004KT 26/18 A3003 RMK A01 T02570181  RH  063%=      5-min Rain = 0
KDO1 200800Z 18005KT 26/18 A3003 RMK A01 T02570181  RH  063%=      5-min Rain = 0
KDO1 200801Z 18004KT 26/18 A3003 RMK A01 T02570181  RH  063%=      5-min Rain = 0
KDO1 200802Z 18005KT 26/18 A3003 RMK A01 T02560181  RH  063%=      5-min Rain = 0
KDO1 200803Z 18004KT 26/18 A3003 RMK A01 T02560181  RH  063%=      5-min Rain = 0
KDO1 200804Z 18004KT 26/18 A3004 RMK A01 T02550181  RH  063%=      5-min Rain = 0
KDO1 200805Z 17005KT 26/18 A3004 RMK A01 T02550181  RH  064%=      5-min Rain = 0
KDO1 200806Z 17005KT 26/18 A3004 RMK A01 T02550181  RH  064%=      5-min Rain = 0
KDO1 200807Z 17005KT 25/18 A3004 RMK A01 T02540181  RH  064%=      5-min Rain = 0
KDO1 200808Z 17005KT 26/18 A3004 RMK A01 T02550182  RH  064%=      5-min Rain = 0
KDO1 200809Z 17005KT 26/18 A3004 RMK A01 T02550181  RH  064%=      5-min Rain = 0
KDO1 200810Z 17005KT 25/18 A3004 RMK A01 T02540181  RH  064%=      5-min Rain = 0
KDO1 200811Z 17005KT 25/18 A3004 RMK A01 T02540181  RH  064%=      5-min Rain = 0
KDO1 200812Z 17005KT 25/18 A3004 RMK A01 T02540181  RH  064%=      5-min Rain = 0
KDO1 200813Z 18005KT 25/18 A3004 RMK A01 T02540181  RH  064%=      5-min Rain = 0
KDO1 200814Z 18005KT 25/18 A3003 RMK A01 T02540181  RH  064%=      5-min Rain = 0
KDO1 200815Z 18005KT 25/18 A3003 RMK A01 T02530181  RH  064%=      5-min Rain = 0
KDO1 200816Z 18005KT 25/18 A3003 RMK A01 T02530181  RH  064%=      5-min Rain = 0
KDO1 200817Z 18005KT 25/18 A3003 RMK A01 T02530180  RH  064%=      5-min Rain = 0
KDO1 200818Z 18005KT 25/18 A3003 RMK A01 T02520180  RH  064%=      5-min Rain = 0
KDO1 200819Z 18005KT 25/18 A3003 RMK A01 T02520180  RH  064%=      5-min Rain = 0
KDO1 200820Z 18005KT 25/18 A3003 RMK A01 T02520180  RH  065%=      5-min Rain = 0
KDO1 200821Z 19005KT 25/18 A3004 RMK A01 T02510180  RH  065%=      5-min Rain = 0
KDO1 200822Z 19005KT 25/18 A3003 RMK A01 T02510180  RH  065%=      5-min Rain = 0
KDO1 200823Z 19005KT 25/18 A3003 RMK A01 T02500180  RH  065%=      5-min Rain = 0
KDO1 200824Z 19005KT 25/18 A3003 RMK A01 T02500180  RH  065%=      5-min Rain = 0
KDO1 200825Z 19005KT 25/18 A3003 RMK A01 T02490180  RH  065%=      5-min Rain = 0
KDO1 200826Z 19005KT 25/18 A3003 RMK A01 T02480180  RH  066%=      5-min Rain = 0
KDO1 200827Z 19005KT 25/18 A3003 RMK A01 T02480180  RH  066%=      5-min Rain = 0
KDO1 200828Z 19005KT 25/18 A3003 RMK A01 T02470180  RH  066%=      5-min Rain = 0
KDO1 200829Z 19005KT 25/18 A3003 RMK A01 T02470180  RH  066%=      5-min Rain = 0
KDO1 200830Z 19005KT 25/18 A3003 RMK A01 T02470180  RH  066%=      5-min Rain = 0
KDO1 200831Z 20005KT 25/18 A3003 RMK A01 T02470181  RH  067%=      5-min Rain = 0
KDO1 200832Z 20005KT 25/18 A3003 RMK A01 T02460181  RH  067%=      5-min Rain = 0
KDO1 200833Z 20005KT 25/18 A3003 RMK A01 T02460181  RH  067%=      5-min Rain = 0
KDO1 200834Z 20005KT 25/18 A3003 RMK A01 T02460181  RH  067%=      5-min Rain = 0
KDO1 200835Z 20005KT 25/18 A3003 RMK A01 T02460182  RH  067%=      5-min Rain = 0
KDO1 200836Z 20005KT 25/18 A3003 RMK A01 T02460181  RH  067%=      5-min Rain = 0
KDO1 200837Z 20005KT 25/18 A3003 RMK A01 T02450181  RH  067%=      5-min Rain = 0
KDO1 200838Z 20005KT 25/18 A3003 RMK A01 T02450181  RH  067%=      5-min Rain = 0
KDO1 200839Z 20005KT 25/18 A3003 RMK A01 T02450181  RH  067%=      5-min Rain = 0
KDO1 200840Z 20005KT 25/18 A3003 RMK A01 T02450181  RH  067%=      5-min Rain = 0
KDO1 200841Z 20005KT 25/18 A3003 RMK A01 T02450181  RH  067%=      5-min Rain = 0
KDO1 200842Z 20005KT 25/18 A3003 RMK A01 T02450181  RH  068%=      5-min Rain = 0
KDO1 200843Z 20005KT 25/18 A3003 RMK A01 T02450182  RH  068%=      5-min Rain = 0
KDO1 200844Z 20005KT 25/18 A3003 RMK A01 T02460182  RH  068%=      5-min Rain = 0
KDO1 200845Z 20005KT 25/18 A3003 RMK A01 T02450182  RH  068%=      5-min Rain = 0
KDO1 200846Z 20004KT 25/18 A3003 RMK A01 T02450182  RH  068%=      5-min Rain = 0
KDO1 200847Z 20005KT 25/18 A3003 RMK A01 T02450182  RH  068%=      5-min Rain = 0
KDO1 200848Z 20005KT 25/18 A3003 RMK A01 T02450183  RH  068%=      5-min Rain = 0
KDO1 200849Z 21005KT 25/18 A3003 RMK A01 T02450182  RH  068%=      5-min Rain = 0
KDO1 200850Z 21005KT 25/18 A3003 RMK A01 T02450182  RH  068%=      5-min Rain = 0
KDO1 200851Z 21004KT 25/18 A3003 RMK A01 T02450183  RH  068%=      5-min Rain = 0
KDO1 200852Z 21005KT 25/18 A3003 RMK A01 T02450182  RH  068%=      5-min Rain = 0
KDO1 200853Z 20005KT 24/18 A3004 RMK A01 T02440182  RH  068%=      5-min Rain = 0
KDO1 200854Z 20004KT 25/18 A3004 RMK A01 T02450182  RH  068%=      5-min Rain = 0
KDO1 200855Z 20004KT 25/18 A3004 RMK A01 T02450182  RH  068%=      5-min Rain = 0
KDO1 200856Z 20004KT 25/18 A3004 RMK A01 T02450182  RH  068%=      5-min Rain = 0
KDO1 200857Z 20004KT 25/18 A3004 RMK A01 T02450182  RH  068%=      5-min Rain = 0
KDO1 200858Z 20004KT 24/18 A3004 RMK A01 T02440182  RH  068%=      5-min Rain = 0
KDO1 200859Z 21004KT 25/18 A3004 RMK A01 T02450182  RH  068%=      5-min Rain = 0
KDO1 200900Z 21003KT 25/18 A3004 RMK A01 T02450182  RH  068%=      5-min Rain = 0
KDO1 200901Z 20003KT 25/18 A3004 RMK A01 T02450183  RH  068%=      5-min Rain = 0
KDO1 200902Z 20003KT 25/18 A3004 RMK A01 T02450183  RH  068%=      5-min Rain = 0
KDO1 200903Z 20003KT 25/18 A3004 RMK A01 T02450183  RH  068%=      5-min Rain = 0
KDO1 200904Z 20003KT 25/18 A3004 RMK A01 T02450183  RH  068%=      5-min Rain = 0
KDO1 200905Z 19004KT 25/18 A3004 RMK A01 T02450183  RH  068%=      5-min Rain = 0
KDO1 200906Z 20004KT 25/18 A3004 RMK A01 T02450183  RH  068%=      5-min Rain = 0
KDO1 200907Z 19004KT 24/18 A3004 RMK A01 T02440182  RH  068%=      5-min Rain = 0
KDO1 200908Z 19004KT 24/18 A3004 RMK A01 T02440182  RH  068%=      5-min Rain = 0
KDO1 200909Z 19004KT 24/18 A3004 RMK A01 T02440182  RH  068%=      5-min Rain = 0
KDO1 200910Z 19004KT 25/18 A3004 RMK A01 T02450183  RH  068%=      5-min Rain = 0
KDO1 200911Z 19004KT 25/18 A3004 RMK A01 T02450183  RH  068%=      5-min Rain = 0
KDO1 200912Z 19004KT 25/18 A3004 RMK A01 T02450182  RH  068%=      5-min Rain = 0
KDO1 200913Z 19003KT 25/18 A3004 RMK A01 T02450182  RH  068%=      5-min Rain = 0
KDO1 200914Z 19003KT 25/18 A3004 RMK A01 T02450182  RH  068%=      5-min Rain = 0
KDO1 200915Z 19003KT 25/18 A3004 RMK A01 T02450183  RH  068%=      5-min Rain = 0
KDO1 200916Z 19003KT 25/18 A3004 RMK A01 T02450182  RH  068%=      5-min Rain = 0
KDO1 200917Z 19004KT 25/18 A3004 RMK A01 T02450183  RH  068%=      5-min Rain = 0
KDO1 200918Z 19004KT 24/18 A3003 RMK A01 T02440183  RH  068%=      5-min Rain = 0
KDO1 200919Z 19004KT 24/18 A3003 RMK A01 T02440183  RH  068%=      5-min Rain = 0
KDO1 200920Z 19004KT 24/18 A3003 RMK A01 T02440182  RH  069%=      5-min Rain = 0
KDO1 200921Z 18004KT 24/18 A3003 RMK A01 T02440182  RH  069%=      5-min Rain = 0
KDO1 200922Z 18004KT 24/18 A3003 RMK A01 T02440183  RH  069%=      5-min Rain = 0
KDO1 200923Z 18004KT 24/18 A3003 RMK A01 T02440182  RH  069%=      5-min Rain = 0
KDO1 200924Z 18005KT 24/18 A3003 RMK A01 T02430182  RH  069%=      5-min Rain = 0
KDO1 200925Z 17005KT 24/18 A3003 RMK A01 T02430182  RH  069%=      5-min Rain = 0
KDO1 200926Z 17005KT 24/18 A3003 RMK A01 T02440182  RH  069%=      5-min Rain = 0
KDO1 200927Z 18005KT 24/18 A3003 RMK A01 T02440182  RH  069%=      5-min Rain = 0
KDO1 200928Z 18005KT 24/18 A3003 RMK A01 T02440183  RH  069%=      5-min Rain = 0
KDO1 200929Z 17004KT 24/18 A3003 RMK A01 T02440183  RH  069%=      5-min Rain = 0
KDO1 200930Z 18005KT 24/18 A3003 RMK A01 T02440183  RH  069%=      5-min Rain = 0
KDO1 200931Z 18005KT 25/18 A3003 RMK A01 T02450183  RH  069%=      5-min Rain = 0
KDO1 200932Z 17005KT 25/18 A3003 RMK A01 T02450183  RH  068%=      5-min Rain = 0
KDO1 200933Z 17005KT 25/18 A3003 RMK A01 T02450184  RH  068%=      5-min Rain = 0
KDO1 200934Z 17005KT 25/18 A3003 RMK A01 T02450184  RH  068%=      5-min Rain = 0
KDO1 200935Z 17005KT 25/18 A3003 RMK A01 T02460184  RH  068%=      5-min Rain = 0
KDO1 200936Z 17005KT 25/18 A3003 RMK A01 T02460184  RH  068%=      5-min Rain = 0
KDO1 200937Z 17005KT 25/18 A3003 RMK A01 T02460184  RH  068%=      5-min Rain = 0
KDO1 200938Z 17005KT 25/18 A3003 RMK A01 T02470184  RH  068%=      5-min Rain = 0
KDO1 200939Z 17005KT 25/18 A3003 RMK A01 T02470184  RH  068%=      5-min Rain = 0
KDO1 200940Z 17005KT 25/18 A3003 RMK A01 T02470184  RH  068%=      5-min Rain = 0
KDO1 200941Z 17005KT 25/18 A3003 RMK A01 T02470184  RH  068%=      5-min Rain = 0
KDO1 200942Z 17005KT 25/18 A3003 RMK A01 T02470184  RH  068%=      5-min Rain = 0
KDO1 200943Z 17005KT 25/19 A3003 RMK A01 T02480185  RH  068%=      5-min Rain = 0
KDO1 200944Z 17005KT 25/19 A3003 RMK A01 T02490185  RH  068%=      5-min Rain = 0
KDO1 200945Z 17005KT 25/19 A3003 RMK A01 T02480185  RH  068%=      5-min Rain = 0
KDO1 200946Z 17005KT 25/19 A3003 RMK A01 T02490185  RH  068%=      5-min Rain = 0
KDO1 200947Z 17005KT 25/18 A3003 RMK A01 T02480184  RH  068%=      5-min Rain = 0
KDO1 200948Z 17004KT 25/18 A3003 RMK A01 T02480184  RH  068%=      5-min Rain = 0
KDO1 200949Z 17004KT 25/19 A3003 RMK A01 T02490185  RH  068%=      5-min Rain = 0
KDO1 200950Z 17004KT 25/19 A3003 RMK A01 T02490185  RH  068%=      5-min Rain = 0
KDO1 200951Z 16004KT 25/19 A3004 RMK A01 T02490185  RH  068%=      5-min Rain = 0
KDO1 200952Z 16003KT 25/19 A3004 RMK A01 T02490185  RH  068%=      5-min Rain = 0
KDO1 200953Z 16003KT 25/19 A3004 RMK A01 T02490185  RH  068%=      5-min Rain = 0
KDO1 200954Z 16003KT 25/19 A3004 RMK A01 T02490185  RH  068%=      5-min Rain = 0
KDO1 200955Z 15002KT 25/19 A3004 RMK A01 T02490185  RH  068%=      5-min Rain = 0
KDO1 200956Z 17001KT 25/19 A3004 RMK A01 T02480185  RH  068%=      5-min Rain = 0
KDO1 200957Z 17001KT 25/19 A3004 RMK A01 T02480185  RH  068%=      5-min Rain = 0
KDO1 200958Z 17002KT 25/19 A3004 RMK A01 T02470185  RH  068%=      5-min Rain = 0
KDO1 200959Z 17003KT 25/19 A3004 RMK A01 T02470185  RH  068%=      5-min Rain = 0
KDO1 201000Z 17003KT 25/19 A3004 RMK A01 T02460185  RH  068%=      5-min Rain = 0
KDO1 201001Z 17002KT 25/19 A3004 RMK A01 T02460185  RH  069%=      5-min Rain = 0
KDO1 201002Z 17002KT 25/19 A3004 RMK A01 T02460185  RH  069%=      5-min Rain = 0
KDO1 201003Z 18003KT 25/19 A3004 RMK A01 T02460185  RH  069%=      5-min Rain = 0
KDO1 201004Z 18003KT 25/19 A3004 RMK A01 T02450185  RH  069%=      5-min Rain = 0
KDO1 201005Z 19003KT 25/19 A3004 RMK A01 T02450185  RH  069%=      5-min Rain = 0
KDO1 201006Z 20002KT 25/19 A3004 RMK A01 T02450185  RH  069%=      5-min Rain = 0
KDO1 201007Z 18002KT 24/19 A3004 RMK A01 T02440185  RH  069%=      5-min Rain = 0
KDO1 201008Z 19002KT 24/19 A3004 RMK A01 T02440185  RH  069%=      5-min Rain = 0
KDO1 201009Z 19003KT 24/19 A3004 RMK A01 T02440185  RH  070%=      5-min Rain = 0
KDO1 201010Z 19002KT 24/19 A3004 RMK A01 T02440185  RH  070%=      5-min Rain = 0
KDO1 201011Z 19002KT 24/19 A3004 RMK A01 T02440185  RH  070%=      5-min Rain = 0
KDO1 201012Z 20002KT 24/19 A3004 RMK A01 T02440185  RH  070%=      5-min Rain = 0
KDO1 201013Z 20002KT 24/19 A3004 RMK A01 T02440185  RH  069%=      5-min Rain = 0
KDO1 201014Z 20002KT 24/18 A3004 RMK A01 T02440184  RH  069%=      5-min Rain = 0
KDO1 201015Z 20002KT 24/18 A3004 RMK A01 T02440184  RH  069%=      5-min Rain = 0
KDO1 201016Z 20002KT 24/18 A3004 RMK A01 T02440184  RH  069%=      5-min Rain = 0
KDO1 201017Z 20003KT 24/18 A3004 RMK A01 T02440184  RH  069%=      5-min Rain = 0
KDO1 201018Z 19003KT 24/18 A3004 RMK A01 T02440184  RH  069%=      5-min Rain = 0
KDO1 201019Z 20003KT 24/18 A3004 RMK A01 T02440184  RH  069%=      5-min Rain = 0
KDO1 201020Z 20003KT 24/18 A3004 RMK A01 T02440184  RH  069%=      5-min Rain = 0
KDO1 201021Z 20003KT 24/19 A3004 RMK A01 T02440185  RH  069%=      5-min Rain = 0
KDO1 201022Z 20003KT 24/19 A3004 RMK A01 T02440185  RH  069%=      5-min Rain = 0
KDO1 201023Z 20004KT 24/19 A3004 RMK A01 T02440185  RH  069%=      5-min Rain = 0
KDO1 201024Z 20004KT 24/19 A3004 RMK A01 T02440185  RH  070%=      5-min Rain = 0
KDO1 201025Z 20004KT 24/19 A3004 RMK A01 T02440185  RH  070%=      5-min Rain = 0
KDO1 201026Z 20004KT 24/19 A3004 RMK A01 T02440185  RH  070%=      5-min Rain = 0
KDO1 201027Z 19004KT 24/19 A3004 RMK A01 T02430185  RH  070%=      5-min Rain = 0
KDO1 201028Z 19004KT 24/19 A3004 RMK A01 T02430185  RH  070%=      5-min Rain = 0
KDO1 201029Z 19004KT 24/19 A3003 RMK A01 T02430185  RH  070%=      5-min Rain = 0
KDO1 201030Z 19004KT 24/19 A3003 RMK A01 T02420186  RH  071%=      5-min Rain = 0
KDO1 201031Z 20004KT 24/19 A3003 RMK A01 T02420186  RH  071%=      5-min Rain = 0
KDO1 201032Z 19005KT 24/19 A3003 RMK A01 T02420186  RH  071%=      5-min Rain = 0
KDO1 201033Z 20004KT 24/19 A3004 RMK A01 T02420186  RH  071%=      5-min Rain = 0
KDO1 201034Z 19004KT 24/19 A3004 RMK A01 T02410186  RH  071%=      5-min Rain = 0
KDO1 201035Z 19005KT 24/19 A3004 RMK A01 T02410187  RH  071%=      5-min Rain = 0
KDO1 201036Z 18005KT 24/19 A3004 RMK A01 T02410186  RH  071%=      5-min Rain = 0
KDO1 201037Z 18004KT 24/19 A3004 RMK A01 T02410186  RH  071%=      5-min Rain = 0
KDO1 201038Z 18004KT 24/19 A3004 RMK A01 T02410186  RH  071%=      5-min Rain = 0
KDO1 201039Z 19003KT 24/19 A3004 RMK A01 T02410186  RH  071%=      5-min Rain = 0
KDO1 201040Z 18002KT 24/19 A3004 RMK A01 T02400185  RH  071%=      5-min Rain = 0
KDO1 201041Z 18001KT 24/19 A3004 RMK A01 T02400185  RH  071%=      5-min Rain = 0
KDO1 201042Z 17002KT 24/19 A3004 RMK A01 T02400185  RH  071%=      5-min Rain = 0
KDO1 201043Z 17002KT 24/19 A3004 RMK A01 T02400185  RH  071%=      5-min Rain = 0
KDO1 201044Z 16002KT 24/19 A3004 RMK A01 T02400185  RH  072%=      5-min Rain = 0
KDO1 201045Z 14002KT 24/19 A3004 RMK A01 T02390185  RH  072%=      5-min Rain = 0
KDO1 201046Z 12001KT 24/19 A3004 RMK A01 T02390185  RH  072%=      5-min Rain = 0
KDO1 201047Z 08002KT 24/19 A3004 RMK A01 T02390185  RH  072%=      5-min Rain = 0
KDO1 201048Z 08001KT 24/19 A3004 RMK A01 T02390186  RH  072%=      5-min Rain = 0
KDO1 201049Z 05002KT 24/19 A3004 RMK A01 T02390186  RH  072%=      5-min Rain = 0
KDO1 201050Z 05003KT 24/19 A3004 RMK A01 T02380185  RH  072%=      5-min Rain = 0
KDO1 201051Z 05003KT 24/19 A3005 RMK A01 T02360185  RH  073%=      5-min Rain = 0
KDO1 201052Z 06004KT 24/18 A3005 RMK A01 T02350184  RH  073%=      5-min Rain = 0
KDO1 201053Z 05004KT 23/18 A3005 RMK A01 T02340184  RH  074%=      5-min Rain = 0
KDO1 201054Z 04005KT 23/19 A3005 RMK A01 T02340185  RH  074%=      5-min Rain = 0
KDO1 201055Z 05004KT 23/18 A3005 RMK A01 T02330184  RH  074%=      5-min Rain = 0
KDO1 201056Z 05005KT 23/18 A3005 RMK A01 T02320184  RH  074%=      5-min Rain = 0
KDO1 201057Z 05005KT 23/19 A3005 RMK A01 T02320185  RH  075%=      5-min Rain = 0
KDO1 201058Z 05005KT 23/19 A3005 RMK A01 T02320185  RH  075%=      5-min Rain = 0
KDO1 201059Z 05004KT 23/19 A3005 RMK A01 T02320185  RH  075%=      5-min Rain = 0
KDO1 201100Z 05004KT 23/19 A3005 RMK A01 T02320185  RH  075%=      5-min Rain = 0
KDO1 201101Z 05004KT 23/19 A3005 RMK A01 T02310185  RH  075%=      5-min Rain = 0
KDO1 201102Z 04003KT 23/19 A3005 RMK A01 T02320186  RH  075%=      5-min Rain = 0
KDO1 201103Z 04002KT 23/19 A3005 RMK A01 T02320186  RH  075%=      5-min Rain = 0
KDO1 201104Z 07003KT 23/19 A3005 RMK A01 T02330186  RH  075%=      5-min Rain = 0
KDO1 201105Z 05002KT 23/19 A3005 RMK A01 T02330186  RH  075%=      5-min Rain = 0
KDO1 201106Z 05002KT 23/19 A3005 RMK A01 T02340186  RH  075%=      5-min Rain = 0
KDO1 201107Z 04002KT 23/19 A3005 RMK A01 T02340186  RH  074%=      5-min Rain = 0
KDO1 201108Z 02002KT 23/19 A3005 RMK A01 T02340186  RH  074%=      5-min Rain = 0
KDO1 201109Z 36002KT 23/19 A3005 RMK A01 T02320186  RH  075%=      5-min Rain = 0
KDO1 201110Z 34002KT 23/19 A3005 RMK A01 T02310185  RH  075%=      5-min Rain = 0
KDO1 201111Z 36002KT 23/19 A3005 RMK A01 T02300185  RH  076%=      5-min Rain = 0
KDO1 201112Z 01002KT 23/19 A3005 RMK A01 T02290185  RH  076%=      5-min Rain = 0
KDO1 201113Z 01002KT 23/19 A3005 RMK A01 T02290186  RH  077%=      5-min Rain = 0
KDO1 201114Z 01002KT 23/19 A3005 RMK A01 T02290186  RH  077%=      5-min Rain = 0
KDO1 201115Z 02002KT 23/19 A3005 RMK A01 T02280186  RH  077%=      5-min Rain = 0
KDO1 201116Z 04002KT 23/19 A3005 RMK A01 T02270187  RH  078%=      5-min Rain = 0
KDO1 201117Z 04001KT 23/19 A3005 RMK A01 T02270186  RH  078%=      5-min Rain = 0
KDO1 201118Z 05002KT 23/19 A3005 RMK A01 T02260187  RH  078%=      5-min Rain = 0
KDO1 201119Z 06002KT 23/19 A3005 RMK A01 T02260187  RH  078%=      5-min Rain = 0
KDO1 201120Z 06002KT 23/19 A3005 RMK A01 T02260187  RH  078%=      5-min Rain = 0
KDO1 201121Z 06002KT 23/19 A3005 RMK A01 T02270187  RH  078%=      5-min Rain = 0
KDO1 201122Z 07002KT 23/19 A3005 RMK A01 T02270187  RH  078%=      5-min Rain = 0
KDO1 201123Z 06002KT 23/19 A3005 RMK A01 T02270187  RH  078%=      5-min Rain = 0
KDO1 201124Z 06002KT 23/19 A3005 RMK A01 T02280187  RH  078%=      5-min Rain = 0
KDO1 201125Z 05003KT 23/19 A3005 RMK A01 T02280186  RH  077%=      5-min Rain = 0
KDO1 201126Z 07003KT 23/19 A3005 RMK A01 T02290187  RH  077%=      5-min Rain = 0
KDO1 201127Z 07003KT 23/19 A3005 RMK A01 T02290186  RH  077%=      5-min Rain = 0
KDO1 201128Z 07003KT 23/19 A3005 RMK A01 T02300186  RH  076%=      5-min Rain = 0
KDO1 201129Z 07003KT 23/19 A3005 RMK A01 T02310186  RH  076%=      5-min Rain = 0
KDO1 201130Z 08003KT 23/19 A3005 RMK A01 T02310186  RH  076%=      5-min Rain = 0
KDO1 201131Z 08003KT 23/19 A3005 RMK A01 T02320187  RH  075%=      5-min Rain = 0
KDO1 201132Z 07003KT 23/19 A3005 RMK A01 T02320186  RH  075%=      5-min Rain = 0
KDO1 201133Z 08003KT 23/19 A3005 RMK A01 T02320186  RH  075%=      5-min Rain = 0
KDO1 201134Z 08003KT 23/19 A3005 RMK A01 T02330187  RH  075%=      5-min Rain = 0
KDO1 201135Z 08002KT 23/19 A3005 RMK A01 T02320186  RH  075%=      5-min Rain = 0
KDO1 201136Z 08002KT 23/19 A3005 RMK A01 T02310186  RH  076%=      5-min Rain = 0
KDO1 201137Z 08002KT 23/19 A3005 RMK A01 T02310186  RH  076%=      5-min Rain = 0
KDO1 201138Z 09002KT 23/19 A3005 RMK A01 T02310186  RH  076%=      5-min Rain = 0
KDO1 201139Z 09001KT 23/19 A3005 RMK A01 T02310186  RH  076%=      5-min Rain = 0
KDO1 201140Z 08001KT 23/19 A3005 RMK A01 T02310186  RH  076%=      5-min Rain = 0
KDO1 201141Z 10001KT 23/19 A3005 RMK A01 T02310186  RH  076%=      5-min Rain = 0
KDO1 201142Z 10000KT 23/19 A3005 RMK A01 T02300186  RH  076%=      5-min Rain = 0
KDO1 201143Z 10001KT 23/19 A3005 RMK A01 T02310187  RH  076%=      5-min Rain = 0
KDO1 201144Z 09001KT 23/19 A3005 RMK A01 T02300186  RH  076%=      5-min Rain = 0
KDO1 201145Z 10000KT 23/19 A3005 RMK A01 T02300186  RH  076%=      5-min Rain = 0
KDO1 201146Z 00000KT 23/19 A3005 RMK A01 T02300186  RH  076%=      5-min Rain = 0
KDO1 201147Z 00000KT 23/19 A3005 RMK A01 T02300187  RH  077%=      5-min Rain = 0
KDO1 201148Z 00000KT 23/19 A3005 RMK A01 T02300187  RH  077%=      5-min Rain = 0
KDO1 201149Z 00000KT 23/19 A3005 RMK A01 T02290187  RH  077%=      5-min Rain = 0
KDO1 201150Z 00000KT 23/19 A3005 RMK A01 T02270187  RH  078%=      5-min Rain = 0
KDO1 201151Z 14000KT 23/19 A3005 RMK A01 T02260187  RH  078%=      5-min Rain = 0
KDO1 201152Z 14001KT 23/19 A3005 RMK A01 T02260187  RH  078%=      5-min Rain = 0
KDO1 201153Z 15002KT 23/19 A3005 RMK A01 T02260186  RH  078%=      5-min Rain = 0
KDO1 201154Z 15002KT 23/19 A3005 RMK A01 T02260186  RH  078%=      5-min Rain = 0
KDO1 201155Z 15002KT 23/19 A3005 RMK A01 T02250187  RH  079%=      5-min Rain = 0
KDO1 201156Z 16002KT 23/19 A3005 RMK A01 T02260187  RH  079%=      5-min Rain = 0
KDO1 201157Z 17002KT 23/19 A3005 RMK A01 T02260187  RH  079%=      5-min Rain = 0
KDO1 201158Z 16002KT 23/19 A3005 RMK A01 T02260188  RH  079%=      5-min Rain = 0
KDO1 201159Z 17002KT 23/19 A3005 RMK A01 T02260188  RH  079%=      5-min Rain = 0
KDO1 201200Z 18002KT 23/19 A3005 RMK A01 T02260188  RH  079%=      5-min Rain = 0
KDO1 201201Z 19002KT 23/19 A3005 RMK A01 T02270188  RH  079%=      5-min Rain = 0
KDO1 201202Z 19002KT 23/19 A3005 RMK A01 T02280189  RH  079%=      5-min Rain = 0
KDO1 201203Z 19002KT 23/19 A3005 RMK A01 T02280188  RH  078%=      5-min Rain = 0
KDO1 201204Z 19002KT 23/19 A3005 RMK A01 T02290188  RH  078%=      5-min Rain = 0
KDO1 201205Z 19002KT 23/19 A3005 RMK A01 T02290188  RH  078%=      5-min Rain = 0
KDO1 201206Z 20002KT 23/19 A3005 RMK A01 T02290188  RH  078%=      5-min Rain = 0
KDO1 201207Z 19002KT 23/19 A3005 RMK A01 T02290188  RH  078%=      5-min Rain = 0
KDO1 201208Z 19001KT 23/19 A3005 RMK A01 T02290188  RH  078%=      5-min Rain = 0
KDO1 201209Z 19002KT 23/19 A3005 RMK A01 T02290189  RH  078%=      5-min Rain = 0
KDO1 201210Z 19001KT 23/19 A3005 RMK A01 T02290189  RH  078%=      5-min Rain = 0
KDO1 201211Z 19001KT 23/19 A3005 RMK A01 T02290189  RH  078%=      5-min Rain = 0
KDO1 201212Z 19002KT 23/19 A3005 RMK A01 T02290189  RH  078%=      5-min Rain = 0
KDO1 201213Z 19002KT 23/19 A3005 RMK A01 T02280188  RH  078%=      5-min Rain = 0
KDO1 201214Z 19002KT 23/19 A3006 RMK A01 T02290189  RH  078%=      5-min Rain = 0
KDO1 201215Z 18002KT 23/19 A3006 RMK A01 T02290189  RH  078%=      5-min Rain = 0
KDO1 201216Z 18002KT 23/19 A3006 RMK A01 T02290189  RH  078%=      5-min Rain = 0
KDO1 201217Z 18002KT 23/19 A3006 RMK A01 T02290188  RH  078%=      5-min Rain = 0
KDO1 201218Z 19002KT 23/19 A3006 RMK A01 T02290188  RH  078%=      5-min Rain = 0
KDO1 201219Z 20002KT 23/19 A3006 RMK A01 T02290189  RH  078%=      5-min Rain = 0
KDO1 201220Z 20002KT 23/19 A3006 RMK A01 T02290189  RH  078%=      5-min Rain = 0
KDO1 201221Z 20002KT 23/19 A3006 RMK A01 T02300189  RH  078%=      5-min Rain = 0
KDO1 201222Z 20002KT 23/19 A3006 RMK A01 T02300190  RH  078%=      5-min Rain = 0
KDO1 201223Z 19002KT 23/19 A3006 RMK A01 T02300189  RH  078%=      5-min Rain = 0
KDO1 201224Z 18002KT 23/19 A3006 RMK A01 T02300189  RH  078%=      5-min Rain = 0
KDO1 201225Z 18002KT 23/19 A3006 RMK A01 T02300188  RH  077%=      5-min Rain = 0
KDO1 201226Z 17002KT 23/19 A3006 RMK A01 T02310188  RH  077%=      5-min Rain = 0
KDO1 201227Z 17002KT 23/19 A3006 RMK A01 T02320189  RH  077%=      5-min Rain = 0
KDO1 201228Z 16002KT 23/19 A3006 RMK A01 T02320189  RH  077%=      5-min Rain = 0
KDO1 201229Z 16003KT 23/19 A3006 RMK A01 T02330189  RH  076%=      5-min Rain = 0
KDO1 201230Z 15002KT 23/19 A3006 RMK A01 T02340189  RH  076%=      5-min Rain = 0
KDO1 201231Z 15002KT 24/19 A3006 RMK A01 T02350190  RH  075%=      5-min Rain = 0
KDO1 201232Z 15002KT 24/19 A3006 RMK A01 T02370190  RH  075%=      5-min Rain = 0
KDO1 201233Z 15002KT 24/19 A3006 RMK A01 T02380190  RH  074%=      5-min Rain = 0
KDO1 201234Z 15002KT 24/19 A3006 RMK A01 T02390190  RH  074%=      5-min Rain = 0
KDO1 201235Z 14002KT 24/19 A3006 RMK A01 T02400190  RH  073%=      5-min Rain = 0
KDO1 201236Z 15002KT 24/19 A3006 RMK A01 T02410190  RH  073%=      5-min Rain = 0
KDO1 201237Z 15001KT 24/19 A3006 RMK A01 T02420190  RH  073%=      5-min Rain = 0
KDO1 201238Z 14001KT 24/19 A3006 RMK A01 T02430190  RH  072%=      5-min Rain = 0
KDO1 201239Z 14001KT 24/19 A3006 RMK A01 T02440190  RH  072%=      5-min Rain = 0
KDO1 201240Z 15000KT 24/19 A3006 RMK A01 T02440190  RH  072%=      5-min Rain = 0
KDO1 201241Z 15001KT 24/19 A3006 RMK A01 T02440190  RH  072%=      5-min Rain = 0
KDO1 201242Z 13001KT 24/19 A3006 RMK A01 T02440190  RH  072%=      5-min Rain = 0
KDO1 201243Z 14001KT 24/19 A3006 RMK A01 T02440191  RH  072%=      5-min Rain = 0
KDO1 201244Z 13001KT 24/19 A3006 RMK A01 T02440191  RH  072%=      5-min Rain = 0
KDO1 201245Z 13000KT 24/19 A3006 RMK A01 T02430191  RH  073%=      5-min Rain = 0
KDO1 201246Z 13000KT 24/19 A3006 RMK A01 T02430192  RH  073%=      5-min Rain = 0
KDO1 201247Z 14000KT 24/19 A3006 RMK A01 T02430192  RH  073%=      5-min Rain = 0
KDO1 201248Z 12000KT 24/19 A3006 RMK A01 T02430191  RH  073%=      5-min Rain = 0
KDO1 201249Z 13000KT 24/19 A3006 RMK A01 T02430192  RH  073%=      5-min Rain = 0
KDO1 201250Z 00000KT 24/19 A3006 RMK A01 T02430191  RH  073%=      5-min Rain = 0
KDO1 201251Z 15000KT 24/19 A3006 RMK A01 T02430191  RH  073%=      5-min Rain = 0
KDO1 201252Z 16001KT 24/19 A3006 RMK A01 T02430193  RH  074%=      5-min Rain = 0
KDO1 201253Z 17001KT 24/19 A3006 RMK A01 T02430191  RH  073%=      5-min Rain = 0
KDO1 201254Z 17001KT 24/19 A3006 RMK A01 T02430191  RH  073%=      5-min Rain = 0
KDO1 201255Z 16001KT 24/19 A3006 RMK A01 T02430192  RH  073%=      5-min Rain = 0
KDO1 201256Z 16001KT 24/19 A3006 RMK A01 T02430193  RH  073%=      5-min Rain = 0
KDO1 201257Z 18001KT 24/19 A3006 RMK A01 T02440192  RH  073%=      5-min Rain = 0
KDO1 201258Z 16000KT 25/19 A3006 RMK A01 T02460192  RH  072%=      5-min Rain = 0
KDO1 201259Z 16001KT 25/19 A3006 RMK A01 T02460190  RH  071%=      5-min Rain = 0
KDO1 201300Z 18001KT 25/19 A3006 RMK A01 T02470191  RH  071%=      5-min Rain = 0
KDO1 201301Z 20001KT 25/19 A3006 RMK A01 T02480190  RH  070%=      5-min Rain = 0
KDO1 201302Z 19002KT 25/19 A3006 RMK A01 T02490191  RH  070%=      5-min Rain = 0
KDO1 201303Z 19002KT 25/19 A3006 RMK A01 T02490191  RH  070%=      5-min Rain = 0
KDO1 201304Z 18002KT 25/19 A3006 RMK A01 T02500191  RH  070%=      5-min Rain = 0
KDO1 201305Z 19002KT 25/19 A3006 RMK A01 T02500191  RH  070%=      5-min Rain = 0
KDO1 201306Z 19002KT 25/19 A3006 RMK A01 T02500191  RH  070%=      5-min Rain = 0
KDO1 201307Z 19001KT 25/19 A3006 RMK A01 T02500192  RH  070%=      5-min Rain = 0
KDO1 201308Z 18001KT 25/19 A3006 RMK A01 T02500192  RH  070%=      5-min Rain = 0
KDO1 201309Z 17002KT 25/19 A3006 RMK A01 T02490192  RH  070%=      5-min Rain = 0
KDO1 201310Z 16002KT 25/19 A3006 RMK A01 T02490191  RH  070%=      5-min Rain = 0
KDO1 201311Z 17003KT 25/19 A3006 RMK A01 T02490191  RH  070%=      5-min Rain = 0
KDO1 201312Z 16002KT 25/19 A3006 RMK A01 T02500191  RH  070%=      5-min Rain = 0
KDO1 201313Z 16002KT 25/19 A3006 RMK A01 T02500192  RH  070%=      5-min Rain = 0
KDO1 201314Z 16002KT 25/19 A3006 RMK A01 T02510192  RH  070%=      5-min Rain = 0
KDO1 201315Z 16003KT 25/19 A3007 RMK A01 T02520193  RH  070%=      5-min Rain = 0
KDO1 201316Z 16003KT 25/19 A3007 RMK A01 T02530193  RH  069%=      5-min Rain = 0
KDO1 201317Z 16003KT 25/19 A3007 RMK A01 T02540194  RH  069%=      5-min Rain = 0
KDO1 201318Z 16004KT 26/19 A3007 RMK A01 T02550192  RH  068%=      5-min Rain = 0
KDO1 201319Z 15003KT 26/19 A3007 RMK A01 T02560193  RH  068%=      5-min Rain = 0
KDO1 201320Z 16004KT 26/19 A3007 RMK A01 T02570192  RH  068%=      5-min Rain = 0
KDO1 201321Z 15003KT 26/19 A3007 RMK A01 T02570192  RH  067%=      5-min Rain = 0
KDO1 201322Z 16004KT 26/19 A3007 RMK A01 T02570193  RH  068%=      5-min Rain = 0
KDO1 201323Z 18003KT 26/19 A3007 RMK A01 T02580193  RH  067%=      5-min Rain = 0
KDO1 201324Z 17004KT 26/19 A3007 RMK A01 T02590193  RH  067%=      5-min Rain = 0
KDO1 201325Z 17004KT 26/19 A3007 RMK A01 T02600192  RH  066%=      5-min Rain = 0
KDO1 201326Z 18003KT 26/19 A3007 RMK A01 T02600193  RH  066%=      5-min Rain = 0
KDO1 201327Z 17003KT 26/19 A3007 RMK A01 T02610193  RH  066%=      5-min Rain = 0
KDO1 201328Z 17004KT 26/19 A3007 RMK A01 T02620193  RH  066%=      5-min Rain = 0
KDO1 201329Z 19003KT 26/19 A3007 RMK A01 T02630193  RH  066%=      5-min Rain = 0
KDO1 201330Z 19003KT 26/19 A3007 RMK A01 T02630194  RH  066%=      5-min Rain = 0
KDO1 201331Z 19004KT 26/19 A3007 RMK A01 T02640193  RH  065%=      5-min Rain = 0
KDO1 201332Z 19005KT 27/19 A3007 RMK A01 T02650193  RH  065%=      5-min Rain = 0
KDO1 201333Z 19004KT 27/19 A3007 RMK A01 T02650192  RH  064%=      5-min Rain = 0
KDO1 201334Z 20004KT 27/19 A3007 RMK A01 T02660192  RH  064%=      5-min Rain = 0
KDO1 201335Z 19003KT 27/19 A3007 RMK A01 T02660193  RH  064%=      5-min Rain = 0
KDO1 201336Z 19004KT 27/19 A3007 RMK A01 T02670193  RH  064%=      5-min Rain = 0
KDO1 201337Z 19004KT 27/19 A3007 RMK A01 T02670193  RH  064%=      5-min Rain = 0
KDO1 201338Z 20005KT 27/19 A3007 RMK A01 T02660192  RH  064%=      5-min Rain = 0
KDO1 201339Z 20005KT 27/19 A3007 RMK A01 T02670192  RH  063%=      5-min Rain = 0
KDO1 201340Z 19006KT 27/19 A3007 RMK A01 T02670191  RH  063%=      5-min Rain = 0
KDO1 201341Z 19005KT 27/19 A3007 RMK A01 T02660191  RH  063%=      5-min Rain = 0
KDO1 201342Z 20006KT 27/19 A3007 RMK A01 T02650192  RH  064%=      5-min Rain = 0
KDO1 201343Z 20005KT 27/19 A3007 RMK A01 T02650192  RH  064%=      5-min Rain = 0
KDO1 201344Z 19006KT 26/19 A3007 RMK A01 T02640192  RH  065%=      5-min Rain = 0
KDO1 201345Z 19005KT 26/19 A3007 RMK A01 T02630192  RH  065%=      5-min Rain = 0
KDO1 201346Z 18005KT 26/19 A3007 RMK A01 T02630192  RH  065%=      5-min Rain = 0
KDO1 201347Z 19002KT 26/19 A3007 RMK A01 T02630193  RH  065%=      5-min Rain = 0
KDO1 201348Z 18003KT 26/19 A3007 RMK A01 T02640194  RH  065%=      5-min Rain = 0
KDO1 201349Z 18003KT 27/20 A3007 RMK A01 T02660195  RH  065%=      5-min Rain = 0
KDO1 201350Z 20004KT 27/20 A3007 RMK A01 T02680196  RH  065%=      5-min Rain = 0
KDO1 201351Z 21003KT 27/20 A3007 RMK A01 T02690195  RH  064%=      5-min Rain = 0
KDO1 201352Z 20004KT 27/19 A3007 RMK A01 T02690194  RH  063%=      5-min Rain = 0
KDO1 201353Z 22003KT 27/19 A3007 RMK A01 T02700194  RH  063%=      5-min Rain = 0
KDO1 201354Z 23004KT 27/20 A3007 RMK A01 T02690195  RH  064%=      5-min Rain = 0
KDO1 201355Z 23004KT 27/20 A3007 RMK A01 T02690195  RH  064%=      5-min Rain = 0
KDO1 201356Z 22005KT 27/20 A3007 RMK A01 T02700195  RH  064%=      5-min Rain = 0
KDO1 201357Z 23005KT 27/20 A3007 RMK A01 T02700195  RH  063%=      5-min Rain = 0
KDO1 201358Z 22006KT 27/20 A3007 RMK A01 T02700195  RH  063%=      5-min Rain = 0
KDO1 201359Z 21005KT 27/19 A3007 RMK A01 T02690194  RH  064%=      5-min Rain = 0
KDO1 201400Z 20005KT 27/19 A3007 RMK A01 T02690194  RH  064%=      5-min Rain = 0
KDO1 201401Z 20005KT 27/20 A3007 RMK A01 T02690195  RH  064%=      5-min Rain = 0
KDO1 201402Z 21004KT 27/20 A3007 RMK A01 T02690195  RH  064%=      5-min Rain = 0
KDO1 201403Z 22004KT 27/20 A3007 RMK A01 T02700195  RH  064%=      5-min Rain = 0
KDO1 201404Z 21005KT 27/20 A3007 RMK A01 T02690195  RH  064%=      5-min Rain = 0
KDO1 201405Z 22004KT 27/19 A3007 RMK A01 T02700194  RH  063%=      5-min Rain = 0
KDO1 201406Z 22004KT 27/20 A3007 RMK A01 T02710196  RH  063%=      5-min Rain = 0
KDO1 201407Z 23004KT 27/20 A3007 RMK A01 T02740197  RH  063%=      5-min Rain = 0
KDO1 201408Z 23005KT 28/20 A3007 RMK A01 T02760196  RH  062%=      5-min Rain = 0
KDO1 201409Z 23004KT 28/20 A3007 RMK A01 T02770197  RH  062%=      5-min Rain = 0
KDO1 201410Z 21004KT 28/20 A3007 RMK A01 T02770197  RH  061%=      5-min Rain = 0
KDO1 201411Z 20004KT 28/20 A3007 RMK A01 T02790198  RH  061%=      5-min Rain = 0
KDO1 201412Z 20005KT 28/20 A3007 RMK A01 T02800198  RH  061%=      5-min Rain = 0
KDO1 201413Z 22004KT 28/20 A3007 RMK A01 T02800197  RH  061%=      5-min Rain = 0
KDO1 201414Z 21003KT 28/20 A3007 RMK A01 T02790198  RH  061%=      5-min Rain = 0
KDO1 201415Z 21003KT 28/20 A3007 RMK A01 T02800198  RH  061%=      5-min Rain = 0
KDO1 201416Z 21003KT 28/20 A3007 RMK A01 T02810198  RH  061%=      5-min Rain = 0
KDO1 201417Z 21004KT 28/20 A3007 RMK A01 T02830197  RH  060%=      5-min Rain = 0
KDO1 201418Z 23004KT 28/20 A3007 RMK A01 T02840196  RH  059%=      5-min Rain = 0
KDO1 201419Z 23003KT 28/20 A3007 RMK A01 T02830195  RH  059%=      5-min Rain = 0
KDO1 201420Z 20003KT 28/20 A3007 RMK A01 T02820196  RH  060%=      5-min Rain = 0
KDO1 201421Z 20004KT 28/20 A3007 RMK A01 T02820198  RH  060%=      5-min Rain = 0
KDO1 201422Z 19003KT 28/20 A3007 RMK A01 T02840197  RH  059%=      5-min Rain = 0
KDO1 201423Z 21006KT 29/20 A3007 RMK A01 T02850197  RH  059%=      5-min Rain = 0
KDO1 201424Z 20006KT 29/20 A3007 RMK A01 T02860196  RH  058%=      5-min Rain = 0
KDO1 201425Z 21005KT 29/20 A3007 RMK A01 T02870196  RH  058%=      5-min Rain = 0
KDO1 201426Z 21003KT 29/20 A3007 RMK A01 T02860197  RH  058%=      5-min Rain = 0
KDO1 201427Z 21004KT 29/20 A3007 RMK A01 T02860196  RH  058%=      5-min Rain = 0
KDO1 201428Z 21005KT 29/20 A3007 RMK A01 T02860196  RH  058%=      5-min Rain = 0
KDO1 201429Z 21005KT 29/20 A3007 RMK A01 T02870196  RH  058%=      5-min Rain = 0
KDO1 201430Z 21004KT 29/20 A3007 RMK A01 T02880196  RH  057%=      5-min Rain = 0
KDO1 201431Z 21005KT 29/20 A3007 RMK A01 T02890196  RH  057%=      5-min Rain = 0
KDO1 201432Z 22005KT 29/20 A3007 RMK A01 T02900196  RH  057%=      5-min Rain = 0
KDO1 201433Z 21005KT 29/20 A3007 RMK A01 T02910197  RH  057%=      5-min Rain = 0
KDO1 201434Z 22005KT 29/20 A3007 RMK A01 T02920197  RH  057%=      5-min Rain = 0
KDO1 201435Z 23005KT 29/20 A3007 RMK A01 T02930196  RH  056%=      5-min Rain = 0
KDO1 201436Z 23006KT 29/20 A3007 RMK A01 T02920196  RH  056%=      5-min Rain = 0
KDO1 201437Z 22005KT 29/20 A3007 RMK A01 T02920195  RH  056%=      5-min Rain = 0
KDO1 201438Z 22005KT 29/20 A3007 RMK A01 T02920197  RH  057%=      5-min Rain = 0
KDO1 201439Z 23004KT 29/20 A3007 RMK A01 T02930198  RH  056%=      5-min Rain = 0
KDO1 201440Z 21004KT 30/20 A3007 RMK A01 T02950199  RH  056%=      5-min Rain = 0
KDO1 201441Z 23005KT 30/20 A3007 RMK A01 T02960197  RH  056%=      5-min Rain = 0
KDO1 201442Z 21006KT 30/20 A3007 RMK A01 T02960198  RH  056%=      5-min Rain = 0
KDO1 201443Z 21005KT 30/20 A3007 RMK A01 T02970198  RH  055%=      5-min Rain = 0
KDO1 201444Z 22004KT 30/20 A3007 RMK A01 T02970198  RH  055%=      5-min Rain = 0
KDO1 201445Z 22005KT 30/20 A3007 RMK A01 T02990199  RH  055%=      5-min Rain = 0
KDO1 201446Z 22005KT 30/20 A3007 RMK A01 T03020199  RH  054%=      5-min Rain = 0
KDO1 201447Z 23005KT 30/20 A3007 RMK A01 T03030197  RH  053%=      5-min Rain = 0
KDO1 201448Z 23006KT 31/20 A3007 RMK A01 T03060197  RH  052%=      5-min Rain = 0
KDO1 201449Z 22006KT 31/20 A3007 RMK A01 T03070196  RH  052%=      5-min Rain = 0
KDO1 201450Z 23006KT 31/20 A3007 RMK A01 T03060195  RH  051%=      5-min Rain = 0
KDO1 201451Z 23006KT 31/19 A3007 RMK A01 T03070193  RH  050%=      5-min Rain = 0
KDO1 201452Z 24006KT 31/19 A3007 RMK A01 T03080194  RH  051%=      5-min Rain = 0
KDO1 201453Z 23005KT 31/19 A3007 RMK A01 T03100193  RH  050%=      5-min Rain = 0
KDO1 201454Z 21005KT 31/19 A3007 RMK A01 T03110194  RH  050%=      5-min Rain = 0
KDO1 201455Z 21005KT 31/20 A3007 RMK A01 T03120195  RH  050%=      5-min Rain = 0
KDO1 201456Z 19005KT 31/20 A3007 RMK A01 T03120196  RH  050%=      5-min Rain = 0
KDO1 201457Z 22005KT 31/20 A3007 RMK A01 T03110196  RH  050%=      5-min Rain = 0
KDO1 201458Z 23008KT 31/19 A3007 RMK A01 T03120192  RH  049%=      5-min Rain = 0
KDO1 201459Z 24009KT 31/19 A3007 RMK A01 T03120185  RH  047%=      5-min Rain = 0
KDO1 201500Z 24009KT 31/19 A3007 RMK A01 T03140186  RH  047%=      5-min Rain = 0
KDO1 201501Z 22010KT 31/19 A3007 RMK A01 T03140187  RH  047%=      5-min Rain = 0
KDO1 201502Z 23009KT 31/19 A3007 RMK A01 T03140187  RH  047%=      5-min Rain = 0
KDO1 201503Z 23010KT 32/19 A3007 RMK A01 T03150187  RH  047%=      5-min Rain = 0
KDO1 201504Z 22010KT 32/19 A3007 RMK A01 T03160187  RH  046%=      5-min Rain = 0
KDO1 201505Z 22011KT 32/19 A3007 RMK A01 T03160186  RH  046%=      5-min Rain = 0
KDO1 201506Z 21012KT 32/19 A3007 RMK A01 T03180187  RH  046%=      5-min Rain = 0
KDO1 201507Z 23008KT 32/19 A3007 RMK A01 T03180186  RH  045%=      5-min Rain = 0
KDO1 201508Z 23007KT 32/19 A3007 RMK A01 T03190188  RH  046%=      5-min Rain = 0
KDO1 201509Z 22006KT 32/19 A3007 RMK A01 T03210188  RH  045%=      5-min Rain = 0
KDO1 201510Z 22009KT 32/19 A3007 RMK A01 T03210188  RH  045%=      5-min Rain = 0
KDO1 201511Z 23008KT 32/19 A3007 RMK A01 T03220186  RH  044%=      5-min Rain = 0
KDO1 201512Z 22007KT 32/19 A3007 RMK A01 T03220187  RH  045%=      5-min Rain = 0
KDO1 201513Z 22009KT 32/19 A3007 RMK A01 T03240187  RH  044%=      5-min Rain = 0
KDO1 201514Z 21007KT 32/19 A3007 RMK A01 T03240187  RH  044%=      5-min Rain = 0
KDO1 201515Z 22008KT 33/19 A3007 RMK A01 T03250187  RH  044%=      5-min Rain = 0
KDO1 201516Z 23007KT 33/19 A3007 RMK A01 T03270188  RH  044%=      5-min Rain = 0
KDO1 201517Z 23009KT 33/19 A3007 RMK A01 T03280188  RH  044%=      5-min Rain = 0
KDO1 201518Z 24010KT 33/19 A3007 RMK A01 T03270186  RH  043%=      5-min Rain = 0
KDO1 201519Z 23010KT 33/19 A3007 RMK A01 T03260186  RH  043%=      5-min Rain = 0
KDO1 201520Z 23009KT 33/19 A3007 RMK A01 T03260186  RH  043%=      5-min Rain = 0
KDO1 201521Z 23008KT 33/19 A3007 RMK A01 T03270186  RH  043%=      5-min Rain = 0
KDO1 201522Z 22009KT 33/19 A3007 RMK A01 T03280186  RH  043%=      5-min Rain = 0
KDO1 201523Z 21008KT 33/19 A3007 RMK A01 T03280186  RH  043%=      5-min Rain = 0
KDO1 201524Z 23009KT 33/19 A3007 RMK A01 T03280186  RH  043%=      5-min Rain = 0
KDO1 201525Z 22008KT 33/19 A3007 RMK A01 T03280187  RH  043%=      5-min Rain = 0
KDO1 201526Z 21007KT 33/19 A3007 RMK A01 T03300185  RH  042%=      5-min Rain = 0
KDO1 201527Z 22005KT 33/19 A3007 RMK A01 T03310187  RH  043%=      5-min Rain = 0
KDO1 201528Z 23006KT 33/19 A3007 RMK A01 T03340188  RH  042%=      5-min Rain = 0
KDO1 201529Z 23007KT 34/19 A3007 RMK A01 T03360188  RH  042%=      5-min Rain = 0
KDO1 201530Z 22007KT 34/19 A3007 RMK A01 T03370186  RH  041%=      5-min Rain = 0
KDO1 201531Z 22007KT 34/19 A3007 RMK A01 T03380186  RH  041%=      5-min Rain = 0
KDO1 201532Z 23007KT 34/19 A3007 RMK A01 T03380185  RH  040%=      5-min Rain = 0
KDO1 201533Z 23006KT 34/19 A3007 RMK A01 T03370186  RH  041%=      5-min Rain = 0
KDO1 201534Z 23009KT 34/19 A3007 RMK A01 T03390186  RH  040%=      5-min Rain = 0
KDO1 201535Z 22008KT 34/18 A3007 RMK A01 T03400184  RH  040%=      5-min Rain = 0
KDO1 201536Z 22009KT 34/18 A3007 RMK A01 T03390184  RH  040%=      5-min Rain = 0
KDO1 201537Z 22008KT 34/18 A3007 RMK A01 T03390184  RH  040%=      5-min Rain = 0
KDO1 201538Z 20010KT 34/19 A3007 RMK A01 T03400185  RH  040%=      5-min Rain = 0
KDO1 201539Z 21009KT 34/19 A3007 RMK A01 T03410185  RH  040%=      5-min Rain = 0
KDO1 201540Z 22010KT 34/18 A3007 RMK A01 T03410183  RH  039%=      5-min Rain = 0
KDO1 201541Z 22009KT 34/18 A3007 RMK A01 T03400182  RH  039%=      5-min Rain = 0
KDO1 201542Z 23008KT 34/18 A3007 RMK A01 T03410182  RH  039%=      5-min Rain = 0
KDO1 201543Z 21008KT 34/18 A3007 RMK A01 T03430184  RH  039%=      5-min Rain = 0
KDO1 201544Z 23008KT 34/19 A3007 RMK A01 T03430186  RH  040%=      5-min Rain = 0
KDO1 201545Z 22008KT 34/19 A3007 RMK A01 T03420185  RH  040%=      5-min Rain = 0
KDO1 201546Z 23011KT 34/18 A3007 RMK A01 T03430181  RH  038%=      5-min Rain = 0
KDO1 201547Z 23010KT 34/18 A3007 RMK A01 T03440180  RH  038%=      5-min Rain = 0
KDO1 201548Z 21008KT 34/18 A3007 RMK A01 T03430179  RH  038%=      5-min Rain = 0
KDO1 201549Z 24006KT 35/18 A3007 RMK A01 T03450182  RH  038%=      5-min Rain = 0
KDO1 201550Z 24008KT 35/18 A3007 RMK A01 T03490182  RH  037%=      5-min Rain = 0
KDO1 201551Z 24008KT 35/18 A3007 RMK A01 T03490180  RH  037%=      5-min Rain = 0
KDO1 201552Z 24010KT 35/18 A3007 RMK A01 T03490180  RH  037%=      5-min Rain = 0
KDO1 201553Z 24009KT 35/18 A3007 RMK A01 T03490179  RH  037%=      5-min Rain = 0
KDO1 201554Z 25008KT 35/18 A3007 RMK A01 T03490180  RH  037%=      5-min Rain = 0
KDO1 201555Z 23005KT 35/18 A3007 RMK A01 T03500180  RH  037%=      5-min Rain = 0
KDO1 201556Z 25004KT 35/18 A3007 RMK A01 T03500179  RH  036%=      5-min Rain = 0
KDO1 201557Z 24006G11KT 35/18 A3007 RMK A01 T03500180  RH  037%=      5-min Rain = 0
KDO1 201558Z 23009KT 35/18 A3007 RMK A01 T03500180  RH  037%=      5-min Rain = 0
KDO1 201559Z 23005KT 35/18 A3007 RMK A01 T03490179  RH  037%=      5-min Rain = 0
KDO1 201600Z 25008KT 35/18 A3007 RMK A01 T03500179  RH  036%=      5-min Rain = 0
KDO1 201601Z 25009KT 35/18 A3007 RMK A01 T03500176  RH  036%=      5-min Rain = 0
KDO1 201602Z 22010KT 35/18 A3007 RMK A01 T03520178  RH  036%=      5-min Rain = 0
KDO1 201603Z 23010KT 35/18 A3007 RMK A01 T03540175  RH  035%=      5-min Rain = 0
KDO1 201604Z 22007KT 35/18 A3007 RMK A01 T03530175  RH  035%=      5-min Rain = 0
KDO1 201605Z 22007KT 35/18 A3007 RMK A01 T03530176  RH  035%=      5-min Rain = 0
KDO1 201606Z 23009KT 35/18 A3007 RMK A01 T03540175  RH  035%=      5-min Rain = 0
KDO1 201607Z 22012KT 36/18 A3007 RMK A01 T03550175  RH  035%=      5-min Rain = 0
KDO1 201608Z 21011KT 35/17 A3007 RMK A01 T03540174  RH  034%=      5-min Rain = 0
KDO1 201609Z 22009KT 35/17 A3007 RMK A01 T03530174  RH  035%=      5-min Rain = 0
KDO1 201610Z 23009KT 36/18 A3007 RMK A01 T03560176  RH  035%=      5-min Rain = 0
KDO1 201611Z 23009KT 36/18 A3007 RMK A01 T03570175  RH  034%=      5-min Rain = 0
KDO1 201612Z 23009KT 36/18 A3007 RMK A01 T03570176  RH  034%=      5-min Rain = 0
KDO1 201613Z 26009KT 36/18 A3007 RMK A01 T03590177  RH  034%=      5-min Rain = 0
KDO1 201614Z 27010KT 36/18 A3007 RMK A01 T03580176  RH  034%=      5-min Rain = 0
KDO1 201615Z 26009KT 36/18 A3007 RMK A01 T03570175  RH  034%=      5-min Rain = 0
KDO1 201616Z 23010KT 36/18 A3007 RMK A01 T03560176  RH  035%=      5-min Rain = 0
KDO1 201617Z 23009KT 36/18 A3007 RMK A01 T03580178  RH  034%=      5-min Rain = 0
KDO1 201618Z 24008KT 36/18 A3007 RMK A01 T03600175  RH  033%=      5-min Rain = 0
KDO1 201619Z 23008KT 36/18 A3007 RMK A01 T03580176  RH  034%=      5-min Rain = 0
KDO1 201620Z 25008KT 36/18 A3007 RMK A01 T03590176  RH  034%=      5-min Rain = 0
KDO1 201621Z 25007KT 36/17 A3007 RMK A01 T03590174  RH  034%=      5-min Rain = 0
KDO1 201622Z 24008KT 36/18 A3007 RMK A01 T03570175  RH  034%=      5-min Rain = 0
KDO1 201623Z 24009G15KT 36/18 A3007 RMK A01 T03570176  RH  034%=      5-min Rain = 0
KDO1 201624Z 24010KT 36/18 A3007 RMK A01 T03600177  RH  034%=      5-min Rain = 0
KDO1 201625Z 24009KT 36/18 A3007 RMK A01 T03620176  RH  033%=      5-min Rain = 0
KDO1 201626Z 24009KT 36/18 A3007 RMK A01 T03620175  RH  033%=      5-min Rain = 0
KDO1 201627Z 26009KT 36/18 A3007 RMK A01 T03610176  RH  034%=      5-min Rain = 0
KDO1 201628Z 27009KT 36/18 A3007 RMK A01 T03610175  RH  033%=      5-min Rain = 0
KDO1 201629Z 26009KT 36/17 A3007 RMK A01 T03600174  RH  033%=      5-min Rain = 0
KDO1 201630Z 25005KT 36/18 A3007 RMK A01 T03590176  RH  034%=      5-min Rain = 0
KDO1 201631Z 23011KT 36/18 A3007 RMK A01 T03610177  RH  034%=      5-min Rain = 0
KDO1 201632Z 22008KT 36/18 A3007 RMK A01 T03620177  RH  034%=      5-min Rain = 0
KDO1 201633Z 22009KT 36/18 A3007 RMK A01 T03620177  RH  034%=      5-min Rain = 0
KDO1 201634Z 23011KT 36/18 A3007 RMK A01 T03640175  RH  033%=      5-min Rain = 0
KDO1 201635Z 24007KT 36/18 A3007 RMK A01 T03630175  RH  033%=      5-min Rain = 0
KDO1 201636Z 25008KT 36/18 A3007 RMK A01 T03620175  RH  033%=      5-min Rain = 0
KDO1 201637Z 25007KT 36/18 A3007 RMK A01 T03610175  RH  033%=      5-min Rain = 0
KDO1 201638Z 23008KT 36/18 A3007 RMK A01 T03590176  RH  034%=      5-min Rain = 0
KDO1 201639Z 23011KT 36/18 A3007 RMK A01 T03590175  RH  034%=      5-min Rain = 0
KDO1 201640Z 24010KT 36/17 A3007 RMK A01 T03570174  RH  034%=      5-min Rain = 0
KDO1 201641Z 23010KT 35/17 A3007 RMK A01 T03540174  RH  034%=      5-min Rain = 0
KDO1 201642Z 24009KT 35/17 A3007 RMK A01 T03520173  RH  035%=      5-min Rain = 0
KDO1 201643Z 21008KT 35/18 A3007 RMK A01 T03530175  RH  035%=      5-min Rain = 0
KDO1 201644Z 21007KT 36/18 A3007 RMK A01 T03560175  RH  034%=      5-min Rain = 0
KDO1 201645Z 23010KT 36/18 A3007 RMK A01 T03550175  RH  034%=      5-min Rain = 0
KDO1 201646Z 24012KT 36/17 A3007 RMK A01 T03560174  RH  034%=      5-min Rain = 0
KDO1 201647Z 25009KT 36/17 A3007 RMK A01 T03580174  RH  034%=      5-min Rain = 0
KDO1 201648Z 25007KT 36/18 A3007 RMK A01 T03590175  RH  034%=      5-min Rain = 0
KDO1 201649Z 25009KT 36/17 A3007 RMK A01 T03610174  RH  033%=      5-min Rain = 0
KDO1 201650Z 26006KT 36/18 A3007 RMK A01 T03610175  RH  033%=      5-min Rain = 0
KDO1 201651Z 24007KT 36/18 A3007 RMK A01 T03620175  RH  033%=      5-min Rain = 0
KDO1 201652Z 23012KT 36/18 A3007 RMK A01 T03630176  RH  033%=      5-min Rain = 0
KDO1 201653Z 23010KT 37/18 A3007 RMK A01 T03650175  RH  033%=      5-min Rain = 0
KDO1 201654Z 24012KT 36/18 A3007 RMK A01 T03640175  RH  033%=      5-min Rain = 0
KDO1 201655Z 24014KT 36/17 A3007 RMK A01 T03640174  RH  033%=      5-min Rain = 0
KDO1 201656Z 22012KT 36/17 A3007 RMK A01 T03630174  RH  033%=      5-min Rain = 0
KDO1 201657Z 23011KT 36/17 A3007 RMK A01 T03630174  RH  033%=      5-min Rain = 0
KDO1 201658Z 24009KT 36/17 A3007 RMK A01 T03630174  RH  033%=      5-min Rain = 0
KDO1 201659Z 22009KT 36/18 A3007 RMK A01 T03640175  RH  033%=      5-min Rain = 0
KDO1 201700Z 23008KT 37/18 A3007 RMK A01 T03650175  RH  033%=      5-min Rain = 0
KDO1 201701Z 23004KT 36/17 A3007 RMK A01 T03640173  RH  032%=      5-min Rain = 0
KDO1 201702Z 22008G13KT 36/17 A3007 RMK A01 T03630174  RH  033%=      5-min Rain = 0
KDO1 201703Z 21009KT 37/18 A3007 RMK A01 T03650176  RH  033%=      5-min Rain = 0
KDO1 201704Z 22011KT 37/18 A3007 RMK A01 T03680175  RH  032%=      5-min Rain = 0
KDO1 201705Z 21008G13KT 37/17 A3007 RMK A01 T03670174  RH  032%=      5-min Rain = 0
KDO1 201706Z 25007KT 37/18 A3007 RMK A01 T03670176  RH  032%=      5-min Rain = 0
KDO1 201707Z 25006KT 37/18 A3007 RMK A01 T03690175  RH  032%=      5-min Rain = 0
KDO1 201708Z 26005G10KT 37/18 A3007 RMK A01 T03690176  RH  032%=      5-min Rain = 0
KDO1 201709Z 24011KT 37/18 A3007 RMK A01 T03680175  RH  032%=      5-min Rain = 0
KDO1 201710Z 25007KT 37/17 A3007 RMK A01 T03650174  RH  032%=      5-min Rain = 0
KDO1 201711Z 24007KT 36/18 A3007 RMK A01 T03620175  RH  033%=      5-min Rain = 0
KDO1 201712Z 25008KT 37/18 A3007 RMK A01 T03670178  RH  033%=      5-min Rain = 0
KDO1 201713Z 25007KT 37/18 A3007 RMK A01 T03720177  RH  032%=      5-min Rain = 0
KDO1 201714Z 23005KT 37/17 A3007 RMK A01 T03700174  RH  032%=      5-min Rain = 0
KDO1 201715Z 20006KT 37/18 A3007 RMK A01 T03700177  RH  032%=      5-min Rain = 0
KDO1 201716Z 21009KT 38/18 A3007 RMK A01 T03750176  RH  031%=      5-min Rain = 0
KDO1 201717Z 22007KT 37/17 A3007 RMK A01 T03740174  RH  031%=      5-min Rain = 0
KDO1 201718Z 23007KT 37/18 A3007 RMK A01 T03710175  RH  032%=      5-min Rain = 0
KDO1 201719Z 24007KT 37/17 A3007 RMK A01 T03680174  RH  032%=      5-min Rain = 0
KDO1 201720Z 25007KT 37/17 A3007 RMK A01 T03660174  RH  032%=      5-min Rain = 0
KDO1 201721Z 24004KT 37/17 A3007 RMK A01 T03650174  RH  033%=      5-min Rain = 0
KDO1 201722Z 25004KT 37/18 A3007 RMK A01 T03680177  RH  033%=      5-min Rain = 0
KDO1 201723Z 25005KT 37/18 A3007 RMK A01 T03700175  RH  032%=      5-min Rain = 0
KDO1 201724Z 25004KT 37/17 A3007 RMK A01 T03670174  RH  032%=      5-min Rain = 0
KDO1 201725Z 20008KT 37/18 A3006 RMK A01 T03670175  RH  032%=      5-min Rain = 0
KDO1 201726Z 22010KT 37/18 A3007 RMK A01 T03680176  RH  032%=      5-min Rain = 0
KDO1 201727Z 21007KT 37/18 A3007 RMK A01 T03670175  RH  032%=      5-min Rain = 0
KDO1 201728Z 19006KT 37/17 A3006 RMK A01 T03660173  RH  032%=      5-min Rain = 0
KDO1 201729Z 20006KT 37/18 A3006 RMK A01 T03650175  RH  033%=      5-min Rain = 0
KDO1 201730Z 25007KT 37/18 A3006 RMK A01 T03660176  RH  033%=      5-min Rain = 0
KDO1 201731Z 24008KT 37/18 A3006 RMK A01 T03690176  RH  032%=      5-min Rain = 0
KDO1 201732Z 24007KT 37/18 A3006 RMK A01 T03700177  RH  032%=      5-min Rain = 0
KDO1 201733Z 26008KT 37/18 A3006 RMK A01 T03730179  RH  032%=      5-min Rain = 0
KDO1 201734Z 27007KT 37/18 A3006 RMK A01 T03740177  RH  032%=      5-min Rain = 0
KDO1 201735Z 24006KT 38/18 A3006 RMK A01 T03750176  RH  031%=      5-min Rain = 0
KDO1 201736Z 26004KT 37/17 A3006 RMK A01 T03730173  RH  031%=      5-min Rain = 0
KDO1 201737Z 23005KT 37/17 A3006 RMK A01 T03700174  RH  032%=      5-min Rain = 0
KDO1 201738Z 22005KT 37/18 A3006 RMK A01 T03670175  RH  032%=      5-min Rain = 0
KDO1 201739Z 24005KT 37/18 A3006 RMK A01 T03700177  RH  032%=      5-min Rain = 0
KDO1 201740Z 25007KT 37/18 A3006 RMK A01 T03740177  RH  032%=      5-min Rain = 0
KDO1 201741Z 23009KT 38/18 A3006 RMK A01 T03750176  RH  031%=      5-min Rain = 0
KDO1 201742Z 24009KT 38/18 A3006 RMK A01 T03770175  RH  031%=      5-min Rain = 0
KDO1 201743Z 23009KT 38/18 A3006 RMK A01 T03750176  RH  031%=      5-min Rain = 0
KDO1 201744Z 22008KT 37/18 A3006 RMK A01 T03740176  RH  031%=      5-min Rain = 0
KDO1 201745Z 21008KT 37/18 A3006 RMK A01 T03720175  RH  031%=      5-min Rain = 0
KDO1 201746Z 21008KT 37/17 A3006 RMK A01 T03720174  RH  031%=      5-min Rain = 0
KDO1 201747Z 22009KT 37/17 A3006 RMK A01 T03720173  RH  031%=      5-min Rain = 0
KDO1 201748Z 23005KT 37/17 A3006 RMK A01 T03700170  RH  031%=      5-min Rain = 0
KDO1 201749Z 22002KT 37/17 A3006 RMK A01 T03700172  RH  031%=      5-min Rain = 0
KDO1 201750Z 23007G13KT 37/17 A3006 RMK A01 T03710173  RH  031%=      5-min Rain = 0
KDO1 201751Z 26010KT 37/18 A3006 RMK A01 T03740176  RH  031%=      5-min Rain = 0
KDO1 201752Z 27006KT 37/18 A3006 RMK A01 T03740176  RH  031%=      5-min Rain = 0
KDO1 201753Z 27005KT 37/18 A3006 RMK A01 T03730175  RH  031%=      5-min Rain = 0
KDO1 201754Z 25005KT 37/18 A3006 RMK A01 T03730176  RH  032%=      5-min Rain = 0
KDO1 201755Z 27004KT 37/18 A3006 RMK A01 T03740176  RH  031%=      5-min Rain = 0
KDO1 201756Z 25004KT 37/18 A3006 RMK A01 T03740176  RH  032%=      5-min Rain = 0
KDO1 201757Z 15006G12KT 37/18 A3006 RMK A01 T03740177  RH  032%=      5-min Rain = 0
KDO1 201758Z 14008KT 38/17 A3005 RMK A01 T03780174  RH  030%=      5-min Rain = 0
KDO1 201759Z 15007KT 38/17 A3005 RMK A01 T03810172  RH  030%=      5-min Rain = 0
KDO1 201800Z 16006KT 38/17 A3005 RMK A01 T03810174  RH  030%=      5-min Rain = 0
KDO1 201801Z 17008KT 38/18 A3005 RMK A01 T03840176  RH  030%=      5-min Rain = 0
KDO1 201802Z 19006KT 39/18 A3006 RMK A01 T03850175  RH  029%=      5-min Rain = 0
KDO1 201803Z 22005KT 39/18 A3006 RMK A01 T03870176  RH  029%=      5-min Rain = 0
KDO1 201804Z 23005KT 39/17 A3006 RMK A01 T03880173  RH  029%=      5-min Rain = 0
KDO1 201805Z 25004KT 38/17 A3006 RMK A01 T03840170  RH  029%=      5-min Rain = 0
KDO1 201806Z 22004KT 38/17 A3006 RMK A01 T03820170  RH  029%=      5-min Rain = 0
KDO1 201807Z 22006KT 38/17 A3005 RMK A01 T03800171  RH  029%=      5-min Rain = 0
KDO1 201808Z 21004KT 38/17 A3005 RMK A01 T03790171  RH  029%=      5-min Rain = 0
KDO1 201809Z 19006G11KT 38/17 A3005 RMK A01 T03790171  RH  030%=      5-min Rain = 0
KDO1 201810Z 19009KT 38/17 A3006 RMK A01 T03790170  RH  029%=      5-min Rain = 0
KDO1 201811Z 20010KT 38/17 A3005 RMK A01 T03830165  RH  028%=      5-min Rain = 0
KDO1 201812Z 20011KT 39/17 A3005 RMK A01 T03860168  RH  028%=      5-min Rain = 0
KDO1 201813Z 20010KT 39/17 A3005 RMK A01 T03870169  RH  028%=      5-min Rain = 0
KDO1 201814Z 17011KT 39/17 A3005 RMK A01 T03870169  RH  028%=      5-min Rain = 0
KDO1 201815Z 16008KT 39/17 A3005 RMK A01 T03880168  RH  028%=      5-min Rain = 0
KDO1 201816Z 17010KT 39/17 A3005 RMK A01 T03900166  RH  027%=      5-min Rain = 0
KDO1 201817Z 15010KT 39/17 A3005 RMK A01 T03900165  RH  027%=      5-min Rain = 0
KDO1 201818Z 15009KT 39/16 A3005 RMK A01 T03900164  RH  027%=      5-min Rain = 0
KDO1 201819Z 14009KT 39/16 A3005 RMK A01 T03890164  RH  027%=      5-min Rain = 0
KDO1 201820Z 14006KT 39/17 A3005 RMK A01 T03870165  RH  027%=      5-min Rain = 0
KDO1 201821Z 15007KT 39/17 A3005 RMK A01 T03870165  RH  027%=      5-min Rain = 0
KDO1 201822Z 20006KT 39/17 A3005 RMK A01 T03880166  RH  027%=      5-min Rain = 0
KDO1 201823Z 18006G11KT 39/17 A3005 RMK A01 T03890166  RH  027%=      5-min Rain = 0
KDO1 201824Z 18012KT 39/17 A3005 RMK A01 T03880169  RH  028%=      5-min Rain = 0
KDO1 201825Z 16011KT 39/17 A3005 RMK A01 T03890167  RH  027%=      5-min Rain = 0
KDO1 201826Z 16010KT 39/17 A3005 RMK A01 T03890167  RH  027%=      5-min Rain = 0
KDO1 201827Z 16008KT 39/17 A3005 RMK A01 T03880167  RH  027%=      5-min Rain = 0
KDO1 201828Z 16006KT 39/17 A3005 RMK A01 T03870166  RH  027%=      5-min Rain = 0
KDO1 201829Z 16006G11KT 39/17 A3005 RMK A01 T03850167  RH  028%=      5-min Rain = 0
KDO1 201830Z 14013G19KT 39/17 A3005 RMK A01 T03860169  RH  028%=      5-min Rain = 0
KDO1 201831Z 16010KT 39/17 A3005 RMK A01 T03860172  RH  029%=      5-min Rain = 0
KDO1 201832Z 20008KT 39/17 A3005 RMK A01 T03880171  RH  028%=      5-min Rain = 0
KDO1 201833Z 18005G14KT 39/17 A3005 RMK A01 T03860168  RH  028%=      5-min Rain = 0
KDO1 201834Z 14011KT 39/17 A3005 RMK A01 T03860170  RH  028%=      5-min Rain = 0
KDO1 201835Z 15010KT 39/17 A3005 RMK A01 T03870171  RH  028%=      5-min Rain = 0
KDO1 201836Z 16010KT 39/17 A3005 RMK A01 T03870172  RH  028%=      5-min Rain = 0
KDO1 201837Z 16009KT 39/17 A3005 RMK A01 T03870171  RH  028%=      5-min Rain = 0
KDO1 201838Z 19007KT 39/17 A3005 RMK A01 T03870172  RH  028%=      5-min Rain = 0
KDO1 201839Z 17012KT 39/17 A3005 RMK A01 T03870172  RH  028%=      5-min Rain = 0
KDO1 201840Z 18010KT 39/17 A3005 RMK A01 T03910169  RH  027%=      5-min Rain = 0
KDO1 201841Z 18011KT 39/17 A3005 RMK A01 T03910166  RH  027%=      5-min Rain = 0
KDO1 201842Z 19009KT 39/17 A3005 RMK A01 T03890166  RH  027%=      5-min Rain = 0
KDO1 201843Z 19007KT 39/17 A3005 RMK A01 T03880168  RH  028%=      5-min Rain = 0
KDO1 201844Z 17007KT 39/17 A3005 RMK A01 T03900170  RH  028%=      5-min Rain = 0
KDO1 201845Z 15013KT 39/17 A3005 RMK A01 T03930170  RH  027%=      5-min Rain = 0
KDO1 201846Z 15011KT 39/17 A3005 RMK A01 T03940167  RH  027%=      5-min Rain = 0
KDO1 201847Z 16008KT 39/17 A3005 RMK A01 T03900165  RH  027%=      5-min Rain = 0
KDO1 201848Z 17010KT 39/17 A3005 RMK A01 T03860168  RH  028%=      5-min Rain = 0
KDO1 201849Z 17005KT 39/17 A3005 RMK A01 T03850166  RH  028%=      5-min Rain = 0
KDO1 201850Z 21008KT 39/17 A3004 RMK A01 T03850168  RH  028%=      5-min Rain = 0
KDO1 201851Z 19004KT 38/17 A3004 RMK A01 T03810166  RH  028%=      5-min Rain = 0
KDO1 201852Z 12004KT 38/17 A3004 RMK A01 T03790166  RH  029%=      5-min Rain = 0
KDO1 201853Z 12005KT 38/17 A3004 RMK A01 T03800168  RH  029%=      5-min Rain = 0
KDO1 201854Z 13008KT 38/17 A3004 RMK A01 T03840167  RH  028%=      5-min Rain = 0
KDO1 201855Z 13012KT 39/17 A3004 RMK A01 T03850165  RH  027%=      5-min Rain = 0
KDO1 201856Z 15014KT 38/16 A3004 RMK A01 T03840163  RH  027%=      5-min Rain = 0
KDO1 201857Z 14013KT 38/16 A3004 RMK A01 T03800162  RH  028%=      5-min Rain = 0
KDO1 201858Z 15010KT 38/16 A3004 RMK A01 T03780161  RH  028%=      5-min Rain = 0
KDO1 201859Z 13009KT 38/16 A3004 RMK A01 T03770162  RH  028%=      5-min Rain = 0
KDO1 201900Z 15009KT 38/16 A3004 RMK A01 T03790162  RH  028%=      5-min Rain = 0
KDO1 201901Z 19011KT 38/16 A3004 RMK A01 T03830163  RH  028%=      5-min Rain = 0
KDO1 201902Z 18008KT 39/17 A3004 RMK A01 T03860165  RH  027%=      5-min Rain = 0
KDO1 201903Z 18010KT 39/17 A3004 RMK A01 T03890166  RH  027%=      5-min Rain = 0
KDO1 201904Z 16011G17KT 39/17 A3004 RMK A01 T03900166  RH  027%=      5-min Rain = 0
KDO1 201905Z 16012KT 39/17 A3004 RMK A01 T03850165  RH  027%=      5-min Rain = 0
KDO1 201906Z 16010G15KT 38/16 A3004 RMK A01 T03800164  RH  028%=      5-min Rain = 0
KDO1 201907Z 16010KT 38/17 A3004 RMK A01 T03780165  RH  029%=      5-min Rain = 0
KDO1 201908Z 15011G16KT 38/17 A3004 RMK A01 T03760165  RH  029%=      5-min Rain = 0
KDO1 201909Z 15011KT 38/16 A3004 RMK A01 T03750163  RH  029%=      5-min Rain = 0
KDO1 201910Z 14010KT 37/16 A3004 RMK A01 T03740162  RH  029%=      5-min Rain = 0
KDO1 201911Z 16009KT 37/16 A3004 RMK A01 T03740164  RH  029%=      5-min Rain = 0
KDO1 201912Z 16012KT 38/16 A3004 RMK A01 T03780164  RH  028%=      5-min Rain = 0
KDO1 201913Z 16008KT 38/16 A3004 RMK A01 T03790160  RH  028%=      5-min Rain = 0
KDO1 201914Z 15006KT 38/16 A3004 RMK A01 T03800162  RH  028%=      5-min Rain = 0
KDO1 201915Z 17007KT 38/16 A3004 RMK A01 T03810162  RH  028%=      5-min Rain = 0
KDO1 201916Z 14010KT 38/16 A3004 RMK A01 T03810164  RH  028%=      5-min Rain = 0
KDO1 201917Z 13010KT 38/17 A3004 RMK A01 T03820166  RH  028%=      5-min Rain = 0
KDO1 201918Z 14009KT 38/17 A3004 RMK A01 T03830167  RH  028%=      5-min Rain = 0
KDO1 201919Z 17007KT 38/17 A3004 RMK A01 T03840169  RH  028%=      5-min Rain = 0
KDO1 201920Z 13009KT 39/17 A3004 RMK A01 T03870170  RH  028%=      5-min Rain = 0
KDO1 201921Z 13009KT 39/17 A3004 RMK A01 T03890169  RH  028%=      5-min Rain = 0
KDO1 201922Z 16012KT 39/17 A3004 RMK A01 T03900167  RH  027%=      5-min Rain = 0
KDO1 201923Z 15013KT 39/16 A3004 RMK A01 T03910159  RH  026%=      5-min Rain = 0
KDO1 201924Z 14013KT 39/16 A3004 RMK A01 T03900156  RH  025%=      5-min Rain = 0
KDO1 201925Z 14011KT 39/16 A3004 RMK A01 T03900156  RH  025%=      5-min Rain = 0
KDO1 201926Z 13008KT 39/16 A3004 RMK A01 T03900157  RH  025%=      5-min Rain = 0
KDO1 201927Z 13010KT 39/16 A3004 RMK A01 T03910162  RH  026%=      5-min Rain = 0
KDO1 201928Z 15012KT 39/17 A3003 RMK A01 T03930166  RH  027%=      5-min Rain = 0
KDO1 201929Z 19008KT 39/17 A3004 RMK A01 T03930168  RH  027%=      5-min Rain = 0
KDO1 201930Z 16009KT 40/17 A3003 RMK A01 T03950167  RH  026%=      5-min Rain = 0
KDO1 201931Z 16014KT 40/17 A3003 RMK A01 T03970168  RH  026%=      5-min Rain = 0
KDO1 201932Z 15009KT 40/17 A3003 RMK A01 T03950168  RH  027%=      5-min Rain = 0
KDO1 201933Z 13011KT 40/17 A3003 RMK A01 T03960170  RH  027%=      5-min Rain = 0
KDO1 201934Z 11014KT 40/17 A3003 RMK A01 T03980169  RH  026%=      5-min Rain = 0
KDO1 201935Z 13016KT 40/17 A3003 RMK A01 T03960169  RH  027%=      5-min Rain = 0
KDO1 201936Z 14015KT 39/17 A3003 RMK A01 T03930167  RH  027%=      5-min Rain = 0
KDO1 201937Z 15014G20KT 39/17 A3003 RMK A01 T03900169  RH  027%=      5-min Rain = 0
KDO1 201938Z 15018G23KT 39/17 A3003 RMK A01 T03910167  RH  027%=      5-min Rain = 0
KDO1 201939Z 14013G18KT 39/17 A3003 RMK A01 T03890165  RH  027%=      5-min Rain = 0
KDO1 201940Z 16013G19KT 39/16 A3003 RMK A01 T03880164  RH  027%=      5-min Rain = 0
KDO1 201941Z 14015KT 39/17 A3003 RMK A01 T03890165  RH  027%=      5-min Rain = 0
KDO1 201942Z 14013KT 39/17 A3004 RMK A01 T03890166  RH  027%=      5-min Rain = 0
KDO1 201943Z 15013KT 39/16 A3003 RMK A01 T03890163  RH  027%=      5-min Rain = 0
KDO1 201944Z 14011KT 39/17 A3003 RMK A01 T03880165  RH  027%=      5-min Rain = 0
KDO1 201945Z 13008KT 39/17 A3003 RMK A01 T03890170  RH  028%=      5-min Rain = 0
KDO1 201946Z 13012KT 39/17 A3003 RMK A01 T03940170  RH  027%=      5-min Rain = 0
KDO1 201947Z 12009KT 39/17 A3003 RMK A01 T03940169  RH  027%=      5-min Rain = 0
KDO1 201948Z 15009G14KT 39/17 A3003 RMK A01 T03920170  RH  027%=      5-min Rain = 0
KDO1 201949Z 17010KT 39/17 A3003 RMK A01 T03940171  RH  027%=      5-min Rain = 0
KDO1 201950Z 18013KT 40/17 A3003 RMK A01 T03960166  RH  026%=      5-min Rain = 0
KDO1 201951Z 18010KT 40/17 A3003 RMK A01 T03950165  RH  026%=      5-min Rain = 0
KDO1 201952Z 17011KT 39/17 A3003 RMK A01 T03940166  RH  026%=      5-min Rain = 0
KDO1 201953Z 16015G20KT 39/17 A3003 RMK A01 T03940168  RH  027%=      5-min Rain = 0
KDO1 201954Z 16015KT 39/17 A3003 RMK A01 T03910166  RH  027%=      5-min Rain = 0
KDO1 201955Z 15017KT 39/16 A3003 RMK A01 T03870164  RH  027%=      5-min Rain = 0
KDO1 201956Z 13013G18KT 39/16 A3003 RMK A01 T03860162  RH  027%=      5-min Rain = 0
KDO1 201957Z 13011KT 39/16 A3003 RMK A01 T03860163  RH  027%=      5-min Rain = 0
KDO1 201958Z 15014KT 39/17 A3003 RMK A01 T03860165  RH  027%=      5-min Rain = 0
KDO1 201959Z 17013KT 39/16 A3003 RMK A01 T03880162  RH  027%=      5-min Rain = 0
KDO1 202000Z 17013KT 39/16 A3003 RMK A01 T03900161  RH  026%=      5-min Rain = 0
KDO1 202001Z 17014KT 39/17 A3003 RMK A01 T03890167  RH  027%=      5-min Rain = 0
KDO1 202002Z 18012KT 39/17 A3003 RMK A01 T03900167  RH  027%=      5-min Rain = 0
KDO1 202003Z 16010KT 39/17 A3003 RMK A01 T03900166  RH  027%=      5-min Rain = 0
KDO1 202004Z 15010KT 39/17 A3003 RMK A01 T03900168  RH  027%=      5-min Rain = 0
KDO1 202005Z 16012G17KT 39/17 A3003 RMK A01 T03900168  RH  027%=      5-min Rain = 0
KDO1 202006Z 16011KT 39/17 A3003 RMK A01 T03910167  RH  027%=      5-min Rain = 0
KDO1 202007Z 14013KT 39/17 A3003 RMK A01 T03890166  RH  027%=      5-min Rain = 0
KDO1 202008Z 15011KT 39/17 A3003 RMK A01 T03880166  RH  027%=      5-min Rain = 0
KDO1 202009Z 14013KT 39/17 A3002 RMK A01 T03890167  RH  027%=      5-min Rain = 0
KDO1 202010Z 14012G17KT 39/17 A3002 RMK A01 T03890166  RH  027%=      5-min Rain = 0
KDO1 202011Z 14012G17KT 39/17 A3002 RMK A01 T03880166  RH  027%=      5-min Rain = 0
KDO1 202012Z 14013KT 39/17 A3002 RMK A01 T03880167  RH  027%=      5-min Rain = 0
KDO1 202013Z 14014G19KT 39/17 A3002 RMK A01 T03880168  RH  028%=      5-min Rain = 0
KDO1 202014Z 14013KT 39/17 A3002 RMK A01 T03880167  RH  027%=      5-min Rain = 0
KDO1 202015Z 16011KT 39/17 A3002 RMK A01 T03890167  RH  027%=      5-min Rain = 0
KDO1 202016Z 16013KT 39/17 A3002 RMK A01 T03910166  RH  027%=      5-min Rain = 0
KDO1 202017Z 16014KT 39/17 A3002 RMK A01 T03910165  RH  027%=      5-min Rain = 0
KDO1 202018Z 16013KT 39/16 A3002 RMK A01 T03910164  RH  026%=      5-min Rain = 0
KDO1 202019Z 15013KT 39/16 A3002 RMK A01 T03910164  RH  026%=      5-min Rain = 0
KDO1 202020Z 17011KT 39/17 A3002 RMK A01 T03910165  RH  027%=      5-min Rain = 0
KDO1 202021Z 17011KT 39/16 A3002 RMK A01 T03910164  RH  026%=      5-min Rain = 0
KDO1 202022Z 16011KT 39/17 A3002 RMK A01 T03890165  RH  027%=      5-min Rain = 0
KDO1 202023Z 17010KT 39/17 A3002 RMK A01 T03880165  RH  027%=      5-min Rain = 0
KDO1 202024Z 17010KT 39/17 A3002 RMK A01 T03880165  RH  027%=      5-min Rain = 0
KDO1 202025Z 15013KT 39/17 A3002 RMK A01 T03910167  RH  027%=      5-min Rain = 0
KDO1 202026Z 16011KT 39/17 A3002 RMK A01 T03930168  RH  027%=      5-min Rain = 0
KDO1 202027Z 17011KT 39/17 A3002 RMK A01 T03940169  RH  027%=      5-min Rain = 0
KDO1 202028Z 15007KT 39/17 A3002 RMK A01 T03920170  RH  027%=      5-min Rain = 0
KDO1 202029Z 16008KT 39/17 A3002 RMK A01 T03920171  RH  027%=      5-min Rain = 0
KDO1 202030Z 15016KT 39/17 A3001 RMK A01 T03940171  RH  027%=      5-min Rain = 0
KDO1 202031Z 15016KT 39/17 A3001 RMK A01 T03940170  RH  027%=      5-min Rain = 0
KDO1 202032Z 15013KT 39/17 A3001 RMK A01 T03910169  RH  027%=      5-min Rain = 0
KDO1 202033Z 15013KT 39/17 A3002 RMK A01 T03880169  RH  028%=      5-min Rain = 0
KDO1 202034Z 16012KT 39/17 A3002 RMK A01 T03880171  RH  028%=      5-min Rain = 0
KDO1 202035Z 16014KT 39/17 A3001 RMK A01 T03910170  RH  028%=      5-min Rain = 0
KDO1 202036Z 16011KT 39/17 A3001 RMK A01 T03900169  RH  027%=      5-min Rain = 0
KDO1 202037Z 17016KT 39/17 A3001 RMK A01 T03870168  RH  028%=      5-min Rain = 0
KDO1 202038Z 17013KT 39/17 A3001 RMK A01 T03860167  RH  028%=      5-min Rain = 0
KDO1 202039Z 17011KT 39/17 A3001 RMK A01 T03860167  RH  028%=      5-min Rain = 0
KDO1 202040Z 17014KT 39/17 A3001 RMK A01 T03880167  RH  027%=      5-min Rain = 0
KDO1 202041Z 15012KT 39/17 A3001 RMK A01 T03870166  RH  027%=      5-min Rain = 0
KDO1 202042Z 15010KT 39/17 A3001 RMK A01 T03860166  RH  028%=      5-min Rain = 0
KDO1 202043Z 17010KT 39/17 A3001 RMK A01 T03870167  RH  028%=      5-min Rain = 0
KDO1 202044Z 19011KT 39/17 A3001 RMK A01 T03910170  RH  028%=      5-min Rain = 0
KDO1 202045Z 18010KT 40/17 A3001 RMK A01 T03950171  RH  027%=      5-min Rain = 0
KDO1 202046Z 19013G18KT 40/17 A3001 RMK A01 T03970172  RH  027%=      5-min Rain = 0
KDO1 202047Z 17012G18KT 40/17 A3001 RMK A01 T03990171  RH  027%=      5-min Rain = 0
KDO1 202048Z 15014KT 40/17 A3001 RMK A01 T03990169  RH  026%=      5-min Rain = 0
KDO1 202049Z 15013KT 40/17 A3001 RMK A01 T03970168  RH  026%=      5-min Rain = 0
KDO1 202050Z 17009G15KT 39/17 A3001 RMK A01 T03930169  RH  027%=      5-min Rain = 0
KDO1 202051Z 17013KT 40/17 A3001 RMK A01 T03950170  RH  027%=      5-min Rain = 0
KDO1 202052Z 18013KT 40/17 A3001 RMK A01 T03950170  RH  027%=      5-min Rain = 0
KDO1 202053Z 18013KT 39/17 A3001 RMK A01 T03930168  RH  027%=      5-min Rain = 0
KDO1 202054Z 18012KT 39/17 A3001 RMK A01 T03910166  RH  027%=      5-min Rain = 0
KDO1 202055Z 17012KT 39/17 A30 RMK A01 T03920165  RH  026%=      5-min Rain = 0
KDO1 202056Z 17012KT 39/16 A3001 RMK A01 T03940161  RH  026%=      5-min Rain = 0
KDO1 202057Z 17013KT 39/16 A3001 RMK A01 T03940160  RH  025%=      5-min Rain = 0
KDO1 202058Z 16010G15KT 39/16 A30 RMK A01 T03940161  RH  026%=      5-min Rain = 0
KDO1 202059Z 18011KT 39/16 A30 RMK A01 T03910164  RH  026%=      5-min Rain = 0
KDO1 202100Z 19007KT 39/17 A30 RMK A01 T03910166  RH  027%=      5-min Rain = 0
KDO1 202101Z 18011KT 39/17 A30 RMK A01 T03920166  RH  027%=      5-min Rain = 0
KDO1 202102Z 18009G14KT 39/16 A30 RMK A01 T03940164  RH  026%=      5-min Rain = 0
KDO1 202103Z 19008G13KT 39/16 A30 RMK A01 T03920164  RH  026%=      5-min Rain = 0
KDO1 202104Z 19009KT 39/16 A30 RMK A01 T03910164  RH  027%=      5-min Rain = 0
KDO1 202105Z 17010KT 39/16 A30 RMK A01 T03930163  RH  026%=      5-min Rain = 0
KDO1 202106Z 18010KT 39/16 A30 RMK A01 T03940164  RH  026%=      5-min Rain = 0
KDO1 202107Z 18010KT 40/16 A30 RMK A01 T03960163  RH  026%=      5-min Rain = 0
KDO1 202108Z 17007KT 39/16 A30 RMK A01 T03940160  RH  025%=      5-min Rain = 0
KDO1 202109Z 17006KT 39/16 A30 RMK A01 T03900160  RH  026%=      5-min Rain = 0
KDO1 202110Z 15008G14KT 39/16 A30 RMK A01 T03880161  RH  027%=      5-min Rain = 0
KDO1 202111Z 15013KT 39/16 A30 RMK A01 T03880164  RH  027%=      5-min Rain = 0
KDO1 202112Z 15011KT 39/17 A30 RMK A01 T03900167  RH  027%=      5-min Rain = 0
KDO1 202113Z 16012KT 39/17 A30 RMK A01 T03900167  RH  027%=      5-min Rain = 0
KDO1 202114Z 17013KT 39/17 A30 RMK A01 T03920166  RH  027%=      5-min Rain = 0
KDO1 202115Z 16015KT 39/17 A30 RMK A01 T03920166  RH  027%=      5-min Rain = 0
KDO1 202116Z 17015KT 39/17 A30 RMK A01 T03920165  RH  027%=      5-min Rain = 0
KDO1 202117Z 17010KT 39/16 A2999 RMK A01 T03920164  RH  026%=      5-min Rain = 0
KDO1 202118Z 16010KT 39/17 A2999 RMK A01 T03910165  RH  027%=      5-min Rain = 0
KDO1 202119Z 14013KT 39/17 A2999 RMK A01 T03920166  RH  027%=      5-min Rain = 0
KDO1 202120Z 14010KT 39/16 A2999 RMK A01 T03920164  RH  026%=      5-min Rain = 0
KDO1 202121Z 14011KT 39/17 A2999 RMK A01 T03900165  RH  027%=      5-min Rain = 0
KDO1 202122Z 14012KT 39/16 A2999 RMK A01 T03920164  RH  026%=      5-min Rain = 0
KDO1 202123Z 16008KT 39/16 A2999 RMK A01 T03910163  RH  026%=      5-min Rain = 0
KDO1 202124Z 15005KT 39/16 A2999 RMK A01 T03900163  RH  026%=      5-min Rain = 0
KDO1 202125Z 17012KT 39/16 A2999 RMK A01 T03910164  RH  027%=      5-min Rain = 0
KDO1 202126Z 18012KT 39/16 A2999 RMK A01 T03920164  RH  026%=      5-min Rain = 0
KDO1 202127Z 17012KT 39/16 A2999 RMK A01 T03940164  RH  026%=      5-min Rain = 0
KDO1 202128Z 16013KT 39/16 A2999 RMK A01 T03940164  RH  026%=      5-min Rain = 0
KDO1 202129Z 18012KT 40/16 A2999 RMK A01 T03950162  RH  026%=      5-min Rain = 0
KDO1 202130Z 17011KT 40/16 A2999 RMK A01 T03950162  RH  026%=      5-min Rain = 0
KDO1 202131Z 17012KT 39/16 A2999 RMK A01 T03930163  RH  026%=      5-min Rain = 0
KDO1 202132Z 17008KT 39/16 A2999 RMK A01 T03930162  RH  026%=      5-min Rain = 0
KDO1 202133Z 16009KT 39/16 A2999 RMK A01 T03930163  RH  026%=      5-min Rain = 0
KDO1 202134Z 16014KT 40/17 A2999 RMK A01 T03950166  RH  026%=      5-min Rain = 0
KDO1 202135Z 16012KT 39/17 A2999 RMK A01 T03920165  RH  026%=      5-min Rain = 0
KDO1 202136Z 16011KT 39/17 A2999 RMK A01 T03900165  RH  027%=      5-min Rain = 0
KDO1 202137Z 14014G19KT 39/17 A2999 RMK A01 T03900165  RH  027%=      5-min Rain = 0
KDO1 202138Z 14016KT 39/16 A2999 RMK A01 T03900164  RH  027%=      5-min Rain = 0
KDO1 202139Z 13013KT 39/16 A2999 RMK A01 T03900163  RH  027%=      5-min Rain = 0
KDO1 202140Z 14012KT 39/16 A2999 RMK A01 T03910164  RH  027%=      5-min Rain = 0
KDO1 202141Z 14012KT 39/16 A2999 RMK A01 T03930162  RH  026%=      5-min Rain = 0
KDO1 202142Z 14011KT 39/16 A2999 RMK A01 T03910161  RH  026%=      5-min Rain = 0
KDO1 202143Z 13011KT 39/16 A2999 RMK A01 T03880162  RH  027%=      5-min Rain = 0
KDO1 202144Z 13012KT 39/16 A2999 RMK A01 T03870163  RH  027%=      5-min Rain = 0
KDO1 202145Z 14013KT 39/16 A2999 RMK A01 T03880164  RH  027%=      5-min Rain = 0
KDO1 202146Z 14013KT 39/16 A2999 RMK A01 T03890163  RH  027%=      5-min Rain = 0
KDO1 202147Z 16011KT 39/16 A2999 RMK A01 T03890161  RH  026%=      5-min Rain = 0
KDO1 202148Z 17013KT 39/16 A2999 RMK A01 T03900162  RH  026%=      5-min Rain = 0
KDO1 202149Z 16010KT 39/16 A2999 RMK A01 T03900161  RH  026%=      5-min Rain = 0
KDO1 202150Z 17010KT 39/16 A2999 RMK A01 T03900161  RH  026%=      5-min Rain = 0
KDO1 202151Z 16012KT 39/16 A2999 RMK A01 T03910160  RH  026%=      5-min Rain = 0
KDO1 202152Z 15011KT 39/16 A2999 RMK A01 T03900160  RH  026%=      5-min Rain = 0
KDO1 202153Z 16010KT 39/16 A2999 RMK A01 T03890160  RH  026%=      5-min Rain = 0
KDO1 202154Z 15009KT 39/16 A2999 RMK A01 T03890161  RH  026%=      5-min Rain = 0
KDO1 202155Z 17009G15KT 39/16 A2999 RMK A01 T03880163  RH  027%=      5-min Rain = 0
KDO1 202156Z 16011G16KT 39/16 A2999 RMK A01 T03890163  RH  027%=      5-min Rain = 0
KDO1 202157Z 17010KT 39/16 A2999 RMK A01 T03930163  RH  026%=      5-min Rain = 0
KDO1 202158Z 17011G16KT 40/16 A2999 RMK A01 T03960163  RH  026%=      5-min Rain = 0
KDO1 202159Z 18008KT 40/16 A2999 RMK A01 T03970163  RH  026%=      5-min Rain = 0
KDO1 202200Z 18012G18KT 40/16 A2999 RMK A01 T03980161  RH  025%=      5-min Rain = 0
KDO1 202201Z 18011KT 40/16 A2999 RMK A01 T03960160  RH  025%=      5-min Rain = 0
KDO1 202202Z 17009G17KT 39/16 A2999 RMK A01 T03940161  RH  026%=      5-min Rain = 0
KDO1 202203Z 17015KT 40/16 A2998 RMK A01 T03950161  RH  025%=      5-min Rain = 0
KDO1 202204Z 17014KT 39/16 A2999 RMK A01 T03940159  RH  025%=      5-min Rain = 0
KDO1 202205Z 17009KT 39/16 A2999 RMK A01 T03910157  RH  025%=      5-min Rain = 0
KDO1 202206Z 18011KT 39/16 A2998 RMK A01 T03900160  RH  026%=      5-min Rain = 0
KDO1 202207Z 17012KT 39/16 A2998 RMK A01 T03920163  RH  026%=      5-min Rain = 0
KDO1 202208Z 18011KT 39/16 A2999 RMK A01 T03930162  RH  026%=      5-min Rain = 0
KDO1 202209Z 18013KT 39/16 A2999 RMK A01 T03930160  RH  026%=      5-min Rain = 0
KDO1 202210Z 17009KT 39/16 A2999 RMK A01 T03920160  RH  026%=      5-min Rain = 0
KDO1 202211Z 18008KT 39/16 A2999 RMK A01 T03910160  RH  026%=      5-min Rain = 0
KDO1 202212Z 17010KT 39/16 A2999 RMK A01 T03890159  RH  026%=      5-min Rain = 0
KDO1 202213Z 16010G17KT 39/16 A2999 RMK A01 T03850159  RH  026%=      5-min Rain = 0
KDO1 202214Z 16011G16KT 38/16 A2999 RMK A01 T03840159  RH  027%=      5-min Rain = 0
KDO1 202215Z 15010KT 38/16 A2999 RMK A01 T03820158  RH  027%=      5-min Rain = 0
KDO1 202216Z 16012KT 38/16 A2999 RMK A01 T03820158  RH  027%=      5-min Rain = 0
KDO1 202217Z 14010KT 38/16 A2999 RMK A01 T03810157  RH  027%=      5-min Rain = 0
KDO1 202218Z 16007KT 38/16 A2998 RMK A01 T03790157  RH  027%=      5-min Rain = 0
KDO1 202219Z 14008KT 38/16 A2998 RMK A01 T03780158  RH  027%=      5-min Rain = 0
KDO1 202220Z 14008G13KT 38/16 A2998 RMK A01 T03770158  RH  027%=      5-min Rain = 0
KDO1 202221Z 13010KT 38/16 A2998 RMK A01 T03770158  RH  028%=      5-min Rain = 0
KDO1 202222Z 14012KT 38/16 A2998 RMK A01 T03770159  RH  028%=      5-min Rain = 0
KDO1 202223Z 16012KT 38/16 A2998 RMK A01 T03770160  RH  028%=      5-min Rain = 0
KDO1 202224Z 14012KT 38/16 A2999 RMK A01 T03770159  RH  028%=      5-min Rain = 0
KDO1 202225Z 15014KT 38/16 A2999 RMK A01 T03760159  RH  028%=      5-min Rain = 0
KDO1 202226Z 16011KT 38/16 A2999 RMK A01 T03750159  RH  028%=      5-min Rain = 0
KDO1 202227Z 15012KT 38/16 A2999 RMK A01 T03750159  RH  028%=      5-min Rain = 0
KDO1 202228Z 15010KT 38/16 A2999 RMK A01 T03750159  RH  028%=      5-min Rain = 0
KDO1 202229Z 14010KT 38/16 A2998 RMK A01 T03750159  RH  028%=      5-min Rain = 0
KDO1 202230Z 15008KT 38/16 A2998 RMK A01 T03760159  RH  028%=      5-min Rain = 0
KDO1 202231Z 16008G14KT 38/16 A2998 RMK A01 T03760159  RH  028%=      5-min Rain = 0
KDO1 202232Z 17010KT 38/16 A2998 RMK A01 T03750159  RH  028%=      5-min Rain = 0
KDO1 202233Z 16008KT 38/16 A2998 RMK A01 T03750158  RH  028%=      5-min Rain = 0
KDO1 202234Z 16010KT 38/16 A2999 RMK A01 T03750157  RH  028%=      5-min Rain = 0
KDO1 202235Z 15011KT 37/16 A2998 RMK A01 T03740157  RH  028%=      5-min Rain = 0
KDO1 202236Z 14010KT 37/16 A2998 RMK A01 T03730158  RH  028%=      5-min Rain = 0
KDO1 202237Z 14009KT 37/16 A2998 RMK A01 T03730158  RH  028%=      5-min Rain = 0
KDO1 202238Z 13013KT 37/16 A2998 RMK A01 T03730157  RH  028%=      5-min Rain = 0
KDO1 202239Z 14013KT 37/16 A2998 RMK A01 T03730156  RH  028%=      5-min Rain = 0
KDO1 202240Z 14011KT 37/16 A2998 RMK A01 T03730157  RH  028%=      5-min Rain = 0
KDO1 202241Z 13012KT 37/16 A2998 RMK A01 T03720157  RH  028%=      5-min Rain = 0
KDO1 202242Z 13011KT 37/16 A2998 RMK A01 T03720158  RH  028%=      5-min Rain = 0
KDO1 202243Z 13011G16KT 37/16 A2998 RMK A01 T03720157  RH  028%=      5-min Rain = 0
KDO1 202244Z 13014KT 37/16 A2998 RMK A01 T03720158  RH  028%=      5-min Rain = 0
KDO1 202245Z 13013KT 37/16 A2998 RMK A01 T03720157  RH  028%=      5-min Rain = 0
KDO1 202246Z 13012KT 37/16 A2998 RMK A01 T03720158  RH  028%=      5-min Rain = 0
KDO1 202247Z 14009KT 37/16 A2999 RMK A01 T03710158  RH  028%=      5-min Rain = 0
KDO1 202248Z 16010KT 37/16 A2999 RMK A01 T03710158  RH  028%=      5-min Rain = 0
KDO1 202249Z 16010KT 37/16 A2998 RMK A01 T03720158  RH  028%=      5-min Rain = 0
KDO1 202250Z 15010KT 37/16 A2999 RMK A01 T03720157  RH  028%=      5-min Rain = 0
KDO1 202251Z 14010KT 37/16 A2999 RMK A01 T03720156  RH  028%=      5-min Rain = 0
KDO1 202252Z 14010KT 37/16 A2999 RMK A01 T03720157  RH  028%=      5-min Rain = 0
KDO1 202253Z 14008KT 37/16 A2999 RMK A01 T03720157  RH  028%=      5-min Rain = 0
KDO1 202254Z 15007KT 37/16 A2999 RMK A01 T03720158  RH  028%=      5-min Rain = 0
KDO1 202255Z 15008KT 37/16 A2999 RMK A01 T03730158  RH  028%=      5-min Rain = 0
KDO1 202256Z 15008KT 37/16 A2999 RMK A01 T03740158  RH  028%=      5-min Rain = 0
KDO1 202257Z 14006KT 37/16 A2999 RMK A01 T03740159  RH  028%=      5-min Rain = 0
KDO1 202258Z 12009KT 37/16 A2999 RMK A01 T03740162  RH  029%=      5-min Rain = 0
KDO1 202259Z 12010KT 38/17 A2999 RMK A01 T03750165  RH  029%=      5-min Rain = 0
KDO1 202300Z 13010KT 37/17 A2999 RMK A01 T03740166  RH  029%=      5-min Rain = 0
KDO1 202301Z 14009G14KT 37/17 A2999 RMK A01 T03740165  RH  029%=      5-min Rain = 0
KDO1 202302Z 14012KT 37/16 A2999 RMK A01 T03740163  RH  029%=      5-min Rain = 0
KDO1 202303Z 14010KT 37/16 A2999 RMK A01 T03740163  RH  029%=      5-min Rain = 0
KDO1 202304Z 15010KT 37/16 A2999 RMK A01 T03740163  RH  029%=      5-min Rain = 0
KDO1 202305Z 14012KT 38/16 A2999 RMK A01 T03750164  RH  029%=      5-min Rain = 0
KDO1 202306Z 14012KT 38/17 A2999 RMK A01 T03750166  RH  029%=      5-min Rain = 0
KDO1 202307Z 13010KT 37/17 A2999 RMK A01 T03740168  RH  030%=      5-min Rain = 0
KDO1 202308Z 14008KT 37/17 A2999 RMK A01 T03730169  RH  030%=      5-min Rain = 0
KDO1 202309Z 14007KT 37/17 A2999 RMK A01 T03730168  RH  030%=      5-min Rain = 0
KDO1 202310Z 15009KT 38/17 A2999 RMK A01 T03750168  RH  030%=      5-min Rain = 0
KDO1 202311Z 14009KT 38/16 A2999 RMK A01 T03750164  RH  029%=      5-min Rain = 0
KDO1 202312Z 13010KT 38/16 A2999 RMK A01 T03760164  RH  029%=      5-min Rain = 0
KDO1 202313Z 15009KT 38/16 A2999 RMK A01 T03760162  RH  028%=      5-min Rain = 0
KDO1 202314Z 15009KT 38/16 A2999 RMK A01 T03760161  RH  028%=      5-min Rain = 0
KDO1 202315Z 15011KT 38/16 A2998 RMK A01 T03770161  RH  028%=      5-min Rain = 0
KDO1 202316Z 15012KT 38/16 A2998 RMK A01 T03760161  RH  028%=      5-min Rain = 0
KDO1 202317Z 15011KT 38/16 A2998 RMK A01 T03760160  RH  028%=      5-min Rain = 0
KDO1 202318Z 15011KT 38/16 A2998 RMK A01 T03760160  RH  028%=      5-min Rain = 0
KDO1 202319Z 14010KT 38/16 A2998 RMK A01 T03760160  RH  028%=      5-min Rain = 0
KDO1 202320Z 14009KT 38/16 A2998 RMK A01 T03750160  RH  028%=      5-min Rain = 0
KDO1 202321Z 15011KT 38/16 A2998 RMK A01 T03750160  RH  028%=      5-min Rain = 0
KDO1 202322Z 14010KT 38/16 A2998 RMK A01 T03750161  RH  028%=      5-min Rain = 0
KDO1 202323Z 15008KT 38/16 A2998 RMK A01 T03750161  RH  028%=      5-min Rain = 0
KDO1 202324Z 14007KT 38/16 A2998 RMK A01 T03770162  RH  028%=      5-min Rain = 0
KDO1 202325Z 14009KT 38/17 A2998 RMK A01 T03790165  RH  028%=      5-min Rain = 0
KDO1 202326Z 14013KT 38/17 A2998 RMK A01 T03800165  RH  028%=      5-min Rain = 0
KDO1 202327Z 14011KT 38/16 A2998 RMK A01 T03790164  RH  028%=      5-min Rain = 0
KDO1 202328Z 15009KT 38/16 A2998 RMK A01 T03780163  RH  028%=      5-min Rain = 0
KDO1 202329Z 15011KT 38/16 A2998 RMK A01 T03770163  RH  028%=      5-min Rain = 0
KDO1 202330Z 14010KT 38/16 A2998 RMK A01 T03760163  RH  029%=      5-min Rain = 0
KDO1 202331Z 13010KT 38/16 A2998 RMK A01 T03750164  RH  029%=      5-min Rain = 0
KDO1 202332Z 13013KT 37/16 A2998 RMK A01 T03740162  RH  029%=      5-min Rain = 0
KDO1 202333Z 13011KT 37/16 A2998 RMK A01 T03730160  RH  028%=      5-min Rain = 0
KDO1 202334Z 13010KT 37/16 A2998 RMK A01 T03720159  RH  028%=      5-min Rain = 0
KDO1 202335Z 13009KT 37/16 A2998 RMK A01 T03700159  RH  029%=      5-min Rain = 0
KDO1 202336Z 13008KT 37/16 A2998 RMK A01 T03700161  RH  029%=      5-min Rain = 0
KDO1 202337Z 14008KT 37/16 A2998 RMK A01 T03700163  RH  029%=      5-min Rain = 0
KDO1 202338Z 14012KT 37/16 A2998 RMK A01 T03700162  RH  029%=      5-min Rain = 0
KDO1 202339Z 14011KT 37/16 A2998 RMK A01 T03690161  RH  029%=      5-min Rain = 0
KDO1 202340Z 15012KT 37/16 A2998 RMK A01 T03680161  RH  029%=      5-min Rain = 0
KDO1 202341Z 14009G14KT 37/16 A2998 RMK A01 T03670162  RH  030%=      5-min Rain = 0
KDO1 202342Z 14009KT 37/16 A2998 RMK A01 T03670163  RH  030%=      5-min Rain = 0
KDO1 202343Z 14010KT 37/16 A2999 RMK A01 T03660163  RH  030%=      5-min Rain = 0
KDO1 202344Z 14007KT 37/16 A2999 RMK A01 T03660164  RH  030%=      5-min Rain = 0
KDO1 202345Z 14008KT 37/17 A2999 RMK A01 T03650165  RH  031%=      5-min Rain = 0
KDO1 202346Z 14008KT 37/17 A2999 RMK A01 T03650165  RH  031%=      5-min Rain = 0
KDO1 202347Z 14010KT 37/17 A2999 RMK A01 T03650165  RH  031%=      5-min Rain = 0
KDO1 202348Z 14008KT 36/17 A2999 RMK A01 T03640165  RH  031%=      5-min Rain = 0
KDO1 202349Z 15008KT 36/17 A2999 RMK A01 T03630166  RH  031%=      5-min Rain = 0
KDO1 202350Z 14008KT 36/17 A2999 RMK A01 T03630165  RH  031%=      5-min Rain = 0
KDO1 202351Z 15007KT 36/17 A2999 RMK A01 T03630165  RH  031%=      5-min Rain = 0
KDO1 202352Z 14007KT 36/17 A2999 RMK A01 T03620165  RH  031%=      5-min Rain = 0
KDO1 202353Z 14009KT 36/17 A2999 RMK A01 T03620165  RH  031%=      5-min Rain = 0
KDO1 202354Z 14009KT 36/17 A2999 RMK A01 T03620166  RH  031%=      5-min Rain = 0
KDO1 202355Z 14008KT 36/17 A2998 RMK A01 T03610166  RH  031%=      5-min Rain = 0
KDO1 202356Z 14007KT 36/17 A2998 RMK A01 T03610167  RH  032%=      5-min Rain = 0
KDO1 202357Z 14008KT 36/17 A2998 RMK A01 T03600167  RH  032%=      5-min Rain = 0
KDO1 202358Z 14007KT 36/17 A2998 RMK A01 T03600167  RH  032%=      5-min Rain = 0
KDO1 202359Z 14007KT 36/17 A2998 RMK A01 T03590168  RH  032%=      5-min Rain = 0
KDO1 210000Z 14006KT 36/17 A2998 RMK A01 T03590168  RH  032%=      5-min Rain = 0
KDO1 210001Z 14006KT 36/17 A2998 RMK A01 T03580168  RH  032%=      5-min Rain = 0
KDO1 210002Z 14006KT 36/17 A2998 RMK A01 T03580169  RH  033%=      5-min Rain = 0
KDO1 210003Z 14005KT 36/17 A2998 RMK A01 T03580169  RH  033%=      5-min Rain = 0
KDO1 210004Z 14007KT 36/17 A2998 RMK A01 T03570169  RH  033%=      5-min Rain = 0
KDO1 210005Z 15005KT 36/17 A2998 RMK A01 T03570169  RH  033%=      5-min Rain = 0
KDO1 210006Z 14005KT 36/17 A2998 RMK A01 T03570169  RH  033%=      5-min Rain = 0
KDO1 210007Z 15004KT 36/17 A2998 RMK A01 T03560170  RH  033%=      5-min Rain = 0
KDO1 210008Z 15005KT 36/17 A2998 RMK A01 T03560170  RH  033%=      5-min Rain = 0
KDO1 210009Z 15005KT 36/17 A2998 RMK A01 T03560170  RH  033%=      5-min Rain = 0
KDO1 210010Z 14005KT 36/17 A2998 RMK A01 T03550170  RH  033%=      5-min Rain = 0
KDO1 210011Z 14004KT 36/17 A2998 RMK A01 T03550171  RH  034%=      5-min Rain = 0
KDO1 210012Z 13005KT 36/17 A2998 RMK A01 T03550171  RH  034%=      5-min Rain = 0
KDO1 210013Z 14004KT 35/17 A2998 RMK A01 T03540172  RH  034%=      5-min Rain = 0
KDO1 210014Z 15005KT 35/17 A2998 RMK A01 T03540172  RH  034%=      5-min Rain = 0
KDO1 210015Z 15006KT 35/17 A2998 RMK A01 T03530172  RH  034%=      5-min Rain = 0
KDO1 210016Z 16006KT 35/17 A2998 RMK A01 T03530173  RH  034%=      5-min Rain = 0
KDO1 210017Z 14007KT 35/17 A2998 RMK A01 T03520172  RH  034%=      5-min Rain = 0
KDO1 210018Z 14005KT 35/17 A2998 RMK A01 T03530173  RH  035%=      5-min Rain = 0
KDO1 210019Z 15006KT 35/17 A2998 RMK A01 T03520173  RH  035%=      5-min Rain = 0
KDO1 210020Z 14004KT 35/17 A2998 RMK A01 T03510173  RH  035%=      5-min Rain = 0
KDO1 210021Z 14006KT 35/17 A2998 RMK A01 T03510173  RH  035%=      5-min Rain = 0
KDO1 210022Z 15005KT 35/17 A2998 RMK A01 T03510173  RH  035%=      5-min Rain = 0
KDO1 210023Z 14005KT 35/17 A2998 RMK A01 T03500173  RH  035%=      5-min Rain = 0
KDO1 210024Z 15005KT 35/17 A2998 RMK A01 T03500173  RH  035%=      5-min Rain = 0
KDO1 210025Z 15005KT 35/17 A2998 RMK A01 T03490173  RH  035%=      5-min Rain = 0
KDO1 210026Z 15004KT 35/17 A2998 RMK A01 T03490173  RH  035%=      5-min Rain = 0
KDO1 210027Z 15006KT 35/17 A2998 RMK A01 T03490174  RH  035%=      5-min Rain = 0
KDO1 210028Z 15006KT 35/17 A2998 RMK A01 T03480174  RH  036%=      5-min Rain = 0
KDO1 210029Z 15005KT 35/17 A2998 RMK A01 T03480174  RH  036%=      5-min Rain = 0
KDO1 210030Z 15005KT 35/17 A2998 RMK A01 T03480174  RH  036%=      5-min Rain = 0
KDO1 210031Z 14006KT 35/17 A2998 RMK A01 T03470174  RH  036%=      5-min Rain = 0
KDO1 210032Z 14006KT 35/17 A2998 RMK A01 T03470174  RH  036%=      5-min Rain = 0
KDO1 210033Z 14007KT 35/17 A2998 RMK A01 T03470174  RH  036%=      5-min Rain = 0
KDO1 210034Z 14007KT 35/17 A2998 RMK A01 T03460174  RH  036%=      5-min Rain = 0
KDO1 210035Z 14006KT 35/18 A2998 RMK A01 T03460175  RH  036%=      5-min Rain = 0
KDO1 210036Z 14006KT 35/18 A2998 RMK A01 T03460175  RH  036%=      5-min Rain = 0
KDO1 210037Z 14007KT 35/18 A2998 RMK A01 T03460176  RH  037%=      5-min Rain = 0
KDO1 210038Z 13006KT 35/18 A2998 RMK A01 T03450176  RH  037%=      5-min Rain = 0
KDO1 210039Z 13007KT 34/18 A2998 RMK A01 T03440176  RH  037%=      5-min Rain = 0
KDO1 210040Z 13007KT 34/18 A2998 RMK A01 T03430177  RH  037%=      5-min Rain = 0
KDO1 210041Z 13007KT 34/18 A2998 RMK A01 T03430178  RH  038%=      5-min Rain = 0
KDO1 210042Z 13007KT 34/18 A2998 RMK A01 T03420177  RH  038%=      5-min Rain = 0
KDO1 210043Z 13008KT 34/18 A2998 RMK A01 T03420178  RH  038%=      5-min Rain = 0
KDO1 210044Z 13008KT 34/18 A2998 RMK A01 T03420178  RH  038%=      5-min Rain = 0
KDO1 210045Z 13007KT 34/18 A2998 RMK A01 T03410178  RH  038%=      5-min Rain = 0
KDO1 210046Z 13006KT 34/18 A2998 RMK A01 T03410179  RH  038%=      5-min Rain = 0
KDO1 210047Z 14007KT 34/18 A2998 RMK A01 T03410179  RH  038%=      5-min Rain = 0
KDO1 210048Z 13007KT 34/18 A2998 RMK A01 T03400178  RH  038%=      5-min Rain = 0
KDO1 210049Z 13006KT 34/18 A2998 RMK A01 T03400179  RH  038%=      5-min Rain = 0
KDO1 210050Z 13006KT 34/18 A2998 RMK A01 T03400179  RH  039%=      5-min Rain = 0
KDO1 210051Z 14006KT 34/18 A2998 RMK A01 T03400180  RH  039%=      5-min Rain = 0
KDO1 210052Z 14006KT 34/18 A2998 RMK A01 T03400180  RH  039%=      5-min Rain = 0
KDO1 210053Z 13006KT 34/18 A2998 RMK A01 T03390180  RH  039%=      5-min Rain = 0
KDO1 210054Z 14006KT 34/18 A2998 RMK A01 T03390180  RH  039%=      5-min Rain = 0
KDO1 210055Z 13007KT 34/18 A2998 RMK A01 T03390180  RH  039%=      5-min Rain = 0
KDO1 210056Z 14006KT 34/18 A2998 RMK A01 T03390180  RH  039%=      5-min Rain = 0
KDO1 210057Z 14006KT 34/18 A2998 RMK A01 T03390180  RH  039%=      5-min Rain = 0
KDO1 210058Z 13007KT 34/18 A2998 RMK A01 T03390180  RH  039%=      5-min Rain = 0
KDO1 210059Z 13007KT 34/18 A2998 RMK A01 T03390180  RH  039%=      5-min Rain = 0
KDO1 210100Z 14006KT 34/18 A2998 RMK A01 T03380179  RH  039%=      5-min Rain = 0
KDO1 210101Z 14007KT 34/18 A2998 RMK A01 T03380179  RH  039%=      5-min Rain = 0
KDO1 210102Z 14007KT 34/18 A2998 RMK A01 T03380180  RH  039%=      5-min Rain = 0
KDO1 210103Z 14006KT 34/18 A2998 RMK A01 T03380181  RH  039%=      5-min Rain = 0
KDO1 210104Z 14006KT 34/18 A2998 RMK A01 T03380181  RH  040%=      5-min Rain = 0
KDO1 210105Z 14007KT 34/18 A2998 RMK A01 T03370181  RH  040%=      5-min Rain = 0
KDO1 210106Z 15007KT 34/18 A2998 RMK A01 T03370181  RH  040%=      5-min Rain = 0
KDO1 210107Z 15006KT 34/18 A2998 RMK A01 T03370182  RH  040%=      5-min Rain = 0
KDO1 210108Z 15007KT 34/18 A2998 RMK A01 T03370182  RH  040%=      5-min Rain = 0
KDO1 210109Z 15006KT 34/18 A2998 RMK A01 T03360181  RH  040%=      5-min Rain = 0
KDO1 210110Z 15006KT 34/18 A2998 RMK A01 T03360181  RH  040%=      5-min Rain = 0
KDO1 210111Z 15007KT 34/18 A2998 RMK A01 T03360181  RH  040%=      5-min Rain = 0
KDO1 210112Z 15007KT 34/18 A2998 RMK A01 T03360181  RH  040%=      5-min Rain = 0
KDO1 210113Z 15007KT 34/18 A2998 RMK A01 T03360182  RH  040%=      5-min Rain = 0
KDO1 210114Z 15006KT 34/18 A2998 RMK A01 T03350182  RH  040%=      5-min Rain = 0
KDO1 210115Z 16006KT 34/18 A2998 RMK A01 T03350182  RH  040%=      5-min Rain = 0
KDO1 210116Z 16006KT 34/18 A2998 RMK A01 T03350183  RH  041%=      5-min Rain = 0
KDO1 210117Z 15006KT 33/18 A2998 RMK A01 T03340183  RH  041%=      5-min Rain = 0
KDO1 210118Z 16006KT 33/18 A2998 RMK A01 T03340183  RH  041%=      5-min Rain = 0
KDO1 210119Z 16006KT 33/18 A2998 RMK A01 T03330183  RH  041%=      5-min Rain = 0
KDO1 210120Z 15005KT 33/18 A2998 RMK A01 T03320183  RH  041%=      5-min Rain = 0
KDO1 210121Z 16006KT 33/18 A2998 RMK A01 T03320183  RH  041%=      5-min Rain = 0
KDO1 210122Z 15004KT 33/18 A2998 RMK A01 T03310184  RH  042%=      5-min Rain = 0
KDO1 210123Z 15005KT 33/18 A2998 RMK A01 T03300183  RH  042%=      5-min Rain = 0
KDO1 210124Z 16006KT 33/18 A2999 RMK A01 T03300183  RH  042%=      5-min Rain = 0
KDO1 210125Z 15006KT 33/18 A2999 RMK A01 T03300183  RH  042%=      5-min Rain = 0
KDO1 210126Z 15005KT 33/18 A2999 RMK A01 T03290183  RH  042%=      5-min Rain = 0
KDO1 210127Z 14006KT 33/18 A2999 RMK A01 T03290183  RH  042%=      5-min Rain = 0
KDO1 210128Z 14005KT 33/18 A2999 RMK A01 T03290183  RH  042%=      5-min Rain = 0
KDO1 210129Z 13006KT 33/18 A2999 RMK A01 T03280183  RH  042%=      5-min Rain = 0
KDO1 210130Z 13005KT 33/18 A2999 RMK A01 T03280183  RH  042%=      5-min Rain = 0
KDO1 210131Z 14005KT 33/18 A2999 RMK A01 T03270183  RH  043%=      5-min Rain = 0
KDO1 210132Z 15004KT 33/18 A30 RMK A01 T03260183  RH  043%=      5-min Rain = 0
KDO1 210133Z 15005KT 33/18 A30 RMK A01 T03260183  RH  043%=      5-min Rain = 0
KDO1 210134Z 14005KT 33/18 A30 RMK A01 T03260183  RH  043%=      5-min Rain = 0
KDO1 210135Z 15005KT 33/18 A30 RMK A01 T03250183  RH  043%=      5-min Rain = 0
KDO1 210136Z 15005KT 33/18 A30 RMK A01 T03250182  RH  043%=      5-min Rain = 0
KDO1 210137Z 15004KT 33/18 A30 RMK A01 T03260182  RH  043%=      5-min Rain = 0
KDO1 210138Z 15004KT 33/18 A30 RMK A01 T03250182  RH  043%=      5-min Rain = 0
KDO1 210139Z 15005KT 33/18 A30 RMK A01 T03250182  RH  043%=      5-min Rain = 0
KDO1 210140Z 15004KT 33/18 A30 RMK A01 T03250182  RH  043%=      5-min Rain = 0
KDO1 210141Z 15004KT 32/18 A30 RMK A01 T03240183  RH  043%=      5-min Rain = 0
KDO1 210142Z 15004KT 32/18 A30 RMK A01 T03240182  RH  043%=      5-min Rain = 0
KDO1 210143Z 15004KT 32/18 A30 RMK A01 T03230182  RH  043%=      5-min Rain = 0
KDO1 210144Z 16004KT 32/18 A3001 RMK A01 T03230182  RH  043%=      5-min Rain = 0
KDO1 210145Z 16004KT 32/18 A3001 RMK A01 T03220182  RH  043%=      5-min Rain = 0
KDO1 210146Z 15003KT 32/18 A3001 RMK A01 T03220182  RH  043%=      5-min Rain = 0
KDO1 210147Z 15004KT 32/18 A3001 RMK A01 T03210181  RH  043%=      5-min Rain = 0
KDO1 210148Z 15004KT 32/18 A3001 RMK A01 T03210181  RH  043%=      5-min Rain = 0
KDO1 210149Z 16004KT 32/18 A3001 RMK A01 T03210181  RH  043%=      5-min Rain = 0
KDO1 210150Z 14004KT 32/18 A3001 RMK A01 T03200180  RH  043%=      5-min Rain = 0
KDO1 210151Z 14004KT 32/18 A3001 RMK A01 T03200180  RH  043%=      5-min Rain = 0
KDO1 210152Z 15005KT 32/18 A3001 RMK A01 T03200180  RH  043%=      5-min Rain = 0
KDO1 210153Z 15004KT 32/18 A3001 RMK A01 T03190180  RH  043%=      5-min Rain = 0
KDO1 210154Z 15004KT 32/18 A3001 RMK A01 T03190179  RH  043%=      5-min Rain = 0
KDO1 210155Z 15005KT 32/18 A3001 RMK A01 T03190179  RH  043%=      5-min Rain = 0
KDO1 210156Z 15005KT 32/18 A3001 RMK A01 T03190178  RH  043%=      5-min Rain = 0
KDO1 210157Z 15005KT 32/18 A3001 RMK A01 T03180178  RH  043%=      5-min Rain = 0
KDO1 210158Z 15005KT 32/18 A3001 RMK A01 T03180178  RH  043%=      5-min Rain = 0
KDO1 210159Z 15005KT 32/18 A3001 RMK A01 T03170178  RH  043%=      5-min Rain = 0
KDO1 210200Z 14005KT 32/18 A3001 RMK A01 T03170178  RH  043%=      5-min Rain = 0
KDO1 210201Z 14005KT 32/18 A3001 RMK A01 T03170178  RH  044%=      5-min Rain = 0
KDO1 210202Z 14004KT 32/18 A3001 RMK A01 T03160177  RH  044%=      5-min Rain = 0
KDO1 210203Z 14004KT 32/18 A3001 RMK A01 T03150177  RH  044%=      5-min Rain = 0
KDO1 210204Z 14005KT 32/18 A3001 RMK A01 T03150177  RH  044%=      5-min Rain = 0
KDO1 210205Z 14005KT 32/18 A3001 RMK A01 T03150177  RH  044%=      5-min Rain = 0
KDO1 210206Z 14004KT 31/18 A3001 RMK A01 T03140177  RH  044%=      5-min Rain = 0
KDO1 210207Z 14005KT 31/18 A3001 RMK A01 T03140177  RH  044%=      5-min Rain = 0
KDO1 210208Z 14005KT 31/18 A3001 RMK A01 T03140178  RH  044%=      5-min Rain = 0
KDO1 210209Z 14005KT 31/18 A3001 RMK A01 T03130177  RH  044%=      5-min Rain = 0
KDO1 210210Z 14005KT 31/18 A3001 RMK A01 T03130177  RH  044%=      5-min Rain = 0
KDO1 210211Z 14005KT 31/18 A3001 RMK A01 T03120178  RH  045%=      5-min Rain = 0
KDO1 210212Z 14005KT 31/18 A3001 RMK A01 T03120177  RH  045%=      5-min Rain = 0
KDO1 210213Z 13005KT 31/18 A3001 RMK A01 T03120178  RH  045%=      5-min Rain = 0
KDO1 210214Z 13005KT 31/18 A3001 RMK A01 T03110178  RH  045%=      5-min Rain = 0
KDO1 210215Z 13004KT 31/18 A3001 RMK A01 T03110178  RH  045%=      5-min Rain = 0
KDO1 210216Z 13004KT 31/18 A3001 RMK A01 T03100179  RH  045%=      5-min Rain = 0
KDO1 210217Z 13004KT 31/18 A3001 RMK A01 T03100178  RH  046%=      5-min Rain = 0
KDO1 210218Z 13004KT 31/18 A3001 RMK A01 T03090178  RH  046%=      5-min Rain = 0
KDO1 210219Z 13004KT 31/18 A3002 RMK A01 T03090178  RH  046%=      5-min Rain = 0
KDO1 210220Z 13005KT 31/18 A3002 RMK A01 T03080178  RH  046%=      5-min Rain = 0
KDO1 210221Z 14004KT 31/18 A3002 RMK A01 T03080177  RH  046%=      5-min Rain = 0
KDO1 210222Z 13004KT 31/18 A3002 RMK A01 T03080177  RH  046%=      5-min Rain = 0
KDO1 210223Z 13004KT 31/18 A3002 RMK A01 T03070177  RH  046%=      5-min Rain = 0
KDO1 210224Z 13004KT 31/18 A3002 RMK A01 T03070176  RH  046%=      5-min Rain = 0
KDO1 210225Z 13004KT 31/18 A3002 RMK A01 T03070176  RH  045%=      5-min Rain = 0
KDO1 210226Z 13004KT 31/18 A3002 RMK A01 T03070175  RH  045%=      5-min Rain = 0
KDO1 210227Z 13004KT 31/18 A3002 RMK A01 T03070175  RH  045%=      5-min Rain = 0
KDO1 210228Z 13004KT 31/18 A3002 RMK A01 T03070175  RH  045%=      5-min Rain = 0
KDO1 210229Z 13004KT 31/17 A3002 RMK A01 T03060174  RH  045%=      5-min Rain = 0
KDO1 210230Z 13004KT 31/17 A3002 RMK A01 T03060174  RH  045%=      5-min Rain = 0
KDO1 210231Z 13004KT 31/17 A3002 RMK A01 T03060174  RH  045%=      5-min Rain = 0
KDO1 210232Z 13004KT 31/17 A3002 RMK A01 T03060174  RH  045%=      5-min Rain = 0
KDO1 210233Z 13004KT 31/17 A3002 RMK A01 T03060173  RH  045%=      5-min Rain = 0
KDO1 210234Z 13004KT 31/17 A3002 RMK A01 T03060172  RH  045%=      5-min Rain = 0
KDO1 210235Z 13004KT 31/17 A3002 RMK A01 T03050172  RH  045%=      5-min Rain = 0
KDO1 210236Z 13004KT 31/17 A3002 RMK A01 T03050172  RH  045%=      5-min Rain = 0
KDO1 210237Z 14004KT 31/17 A3002 RMK A01 T03050172  RH  045%=      5-min Rain = 0
KDO1 210238Z 13004KT 30/17 A3002 RMK A01 T03040171  RH  045%=      5-min Rain = 0
KDO1 210239Z 13004KT 30/17 A3002 RMK A01 T03040171  RH  045%=      5-min Rain = 0
KDO1 210240Z 13004KT 30/17 A3002 RMK A01 T03040171  RH  045%=      5-min Rain = 0
KDO1 210241Z 13004KT 30/17 A3002 RMK A01 T03040171  RH  045%=      5-min Rain = 0
KDO1 210242Z 13004KT 30/17 A3002 RMK A01 T03040170  RH  045%=      5-min Rain = 0
KDO1 210243Z 13004KT 30/17 A3002 RMK A01 T03040170  RH  045%=      5-min Rain = 0
KDO1 210244Z 13004KT 30/17 A3002 RMK A01 T03030170  RH  045%=      5-min Rain = 0
KDO1 210245Z 12004KT 30/17 A3002 RMK A01 T03030170  RH  045%=      5-min Rain = 0
KDO1 210246Z 12003KT 30/17 A3003 RMK A01 T03030170  RH  045%=      5-min Rain = 0
KDO1 210247Z 12003KT 30/17 A3003 RMK A01 T03030171  RH  045%=      5-min Rain = 0
KDO1 210248Z 12004KT 30/17 A3003 RMK A01 T03030171  RH  045%=      5-min Rain = 0
KDO1 210249Z 12004KT 30/17 A3003 RMK A01 T03020170  RH  045%=      5-min Rain = 0
KDO1 210250Z 12004KT 30/17 A3003 RMK A01 T03020170  RH  045%=      5-min Rain = 0
KDO1 210251Z 12004KT 30/17 A3003 RMK A01 T03010170  RH  045%=      5-min Rain = 0
KDO1 210252Z 12004KT 30/17 A3003 RMK A01 T03010170  RH  045%=      5-min Rain = 0
KDO1 210253Z 12004KT 30/17 A3003 RMK A01 T03010170  RH  045%=      5-min Rain = 0
KDO1 210254Z 13004KT 30/17 A3003 RMK A01 T03000170  RH  045%=      5-min Rain = 0
KDO1 210255Z 13004KT 30/17 A3003 RMK A01 T03000170  RH  046%=      5-min Rain = 0
KDO1 210256Z 12004KT 30/17 A3003 RMK A01 T02990169  RH  046%=      5-min Rain = 0
KDO1 210257Z 13004KT 30/17 A3003 RMK A01 T02990170  RH  046%=      5-min Rain = 0
KDO1 210258Z 13004KT 30/17 A3003 RMK A01 T02990170  RH  046%=      5-min Rain = 0
KDO1 210259Z 13004KT 30/17 A3003 RMK A01 T02990170  RH  046%=      5-min Rain = 0
KDO1 210300Z 13004KT 30/17 A3003 RMK A01 T02980169  RH  046%=      5-min Rain = 0
KDO1 210301Z 13004KT 30/17 A3003 RMK A01 T02980170  RH  046%=      5-min Rain = 0
KDO1 210302Z 13005KT 30/17 A3003 RMK A01 T02980170  RH  046%=      5-min Rain = 0
KDO1 210303Z 13004KT 30/17 A3003 RMK A01 T02970169  RH  046%=      5-min Rain = 0
KDO1 210304Z 13004KT 30/17 A3003 RMK A01 T02980170  RH  046%=      5-min Rain = 0
KDO1 210305Z 13005KT 30/17 A3003 RMK A01 T02970170  RH  046%=      5-min Rain = 0
KDO1 210306Z 13005KT 30/17 A3003 RMK A01 T02970170  RH  046%=      5-min Rain = 0
KDO1 210307Z 11006KT 30/17 A3003 RMK A01 T02970170  RH  046%=      5-min Rain = 0
KDO1 210308Z 12006KT 30/17 A3003 RMK A01 T02960170  RH  047%=      5-min Rain = 0
KDO1 210309Z 14005KT 30/17 A3003 RMK A01 T02960170  RH  047%=      5-min Rain = 0
KDO1 210310Z 13005KT 30/17 A3003 RMK A01 T02950170  RH  047%=      5-min Rain = 0
KDO1 210311Z 12005KT 30/17 A3003 RMK A01 T02950170  RH  047%=      5-min Rain = 0
KDO1 210312Z 12005KT 30/17 A3003 RMK A01 T02950170  RH  047%=      5-min Rain = 0
KDO1 210313Z 13004KT 29/17 A3003 RMK A01 T02940170  RH  047%=      5-min Rain = 0
KDO1 210314Z 12004KT 29/17 A3003 RMK A01 T02940169  RH  047%=      5-min Rain = 0
KDO1 210315Z 13003KT 29/17 A3003 RMK A01 T02940169  RH  047%=      5-min Rain = 0
KDO1 210316Z 13005KT 29/17 A3003 RMK A01 T02940169  RH  047%=      5-min Rain = 0
KDO1 210317Z 12005KT 29/17 A3003 RMK A01 T02940169  RH  047%=      5-min Rain = 0
KDO1 210318Z 12005KT 29/17 A3003 RMK A01 T02940168  RH  047%=      5-min Rain = 0
KDO1 210319Z 12005KT 29/17 A3003 RMK A01 T02940168  RH  046%=      5-min Rain = 0
KDO1 210320Z 13004KT 30/17 A3003 RMK A01 T02950168  RH  046%=      5-min Rain = 0
KDO1 210321Z 12005KT 30/17 A3003 RMK A01 T02950168  RH  046%=      5-min Rain = 0
KDO1 210322Z 13005KT 30/17 A3003 RMK A01 T02950169  RH  046%=      5-min Rain = 0
KDO1 210323Z 12004KT 30/17 A3003 RMK A01 T02950168  RH  046%=      5-min Rain = 0
KDO1 210324Z 12005KT 30/17 A3003 RMK A01 T02950168  RH  046%=      5-min Rain = 0
KDO1 210325Z 12005KT 30/17 A3003 RMK A01 T02950168  RH  046%=      5-min Rain = 0
KDO1 210326Z 13006KT 30/17 A3003 RMK A01 T02950168  RH  046%=      5-min Rain = 0
KDO1 210327Z 13005KT 30/17 A3003 RMK A01 T02960167  RH  046%=      5-min Rain = 0
KDO1 210328Z 13005KT 30/17 A3003 RMK A01 T02960167  RH  046%=      5-min Rain = 0
KDO1 210329Z 12005KT 30/17 A3003 RMK A01 T02960167  RH  046%=      5-min Rain = 0
KDO1 210330Z 12005KT 30/17 A3003 RMK A01 T02970168  RH  046%=      5-min Rain = 0
KDO1 210331Z 13005KT 30/17 A3003 RMK A01 T02960167  RH  046%=      5-min Rain = 0
KDO1 210332Z 13004KT 30/17 A3003 RMK A01 T02960168  RH  046%=      5-min Rain = 0
KDO1 210333Z 13004KT 30/17 A3003 RMK A01 T02960168  RH  046%=      5-min Rain = 0
KDO1 210334Z 13004KT 30/17 A3003 RMK A01 T02950168  RH  046%=      5-min Rain = 0
KDO1 210335Z 13005KT 30/17 A3003 RMK A01 T02950168  RH  046%=      5-min Rain = 0
KDO1 210336Z 14005KT 29/17 A3003 RMK A01 T02940168  RH  046%=      5-min Rain = 0
KDO1 210337Z 14005KT 29/17 A3003 RMK A01 T02940168  RH  047%=      5-min Rain = 0
KDO1 210338Z 14005KT 29/17 A3004 RMK A01 T02930168  RH  047%=      5-min Rain = 0
KDO1 210339Z 14004KT 29/17 A3004 RMK A01 T02930168  RH  047%=      5-min Rain = 0
KDO1 210340Z 14005KT 29/17 A3004 RMK A01 T02930168  RH  047%=      5-min Rain = 0
KDO1 210341Z 14004KT 29/17 A3004 RMK A01 T02920168  RH  047%=      5-min Rain = 0
KDO1 210342Z 14004KT 29/17 A3004 RMK A01 T02920168  RH  047%=      5-min Rain = 0
KDO1 210343Z 14004KT 29/17 A3004 RMK A01 T02920168  RH  047%=      5-min Rain = 0
KDO1 210344Z 14004KT 29/17 A3004 RMK A01 T02920168  RH  047%=      5-min Rain = 0
KDO1 210345Z 14004KT 29/17 A3004 RMK A01 T02920168  RH  047%=      5-min Rain = 0
KDO1 210346Z 15005KT 29/17 A3004 RMK A01 T02920168  RH  047%=      5-min Rain = 0
KDO1 210347Z 15004KT 29/17 A3004 RMK A01 T02920168  RH  047%=      5-min Rain = 0
KDO1 210348Z 15005KT 29/17 A3004 RMK A01 T02920168  RH  047%=      5-min Rain = 0
KDO1 210349Z 15004KT 29/17 A3004 RMK A01 T02920168  RH  047%=      5-min Rain = 0
KDO1 210350Z 15005KT 29/17 A3004 RMK A01 T02920167  RH  047%=      5-min Rain = 0
KDO1 210351Z 15005KT 29/17 A3004 RMK A01 T02920167  RH  047%=      5-min Rain = 0
KDO1 210352Z 14005KT 29/17 A3004 RMK A01 T02920168  RH  047%=      5-min Rain = 0
KDO1 210353Z 15005KT 29/17 A3004 RMK A01 T02920168  RH  047%=      5-min Rain = 0
KDO1 210354Z 14005KT 29/17 A3004 RMK A01 T02920167  RH  047%=      5-min Rain = 0
KDO1 210355Z 14005KT 29/17 A3004 RMK A01 T02920167  RH  047%=      5-min Rain = 0
KDO1 210356Z 14005KT 29/17 A3004 RMK A01 T02920167  RH  047%=      5-min Rain = 0
KDO1 210357Z 14006KT 29/17 A3004 RMK A01 T02920168  RH  047%=      5-min Rain = 0
KDO1 210358Z 14005KT 29/17 A3004 RMK A01 T02920167  RH  047%=      5-min Rain = 0
KDO1 210359Z 14006KT 29/17 A3004 RMK A01 T02920167  RH  047%=      5-min Rain = 0
KDO1 210400Z 14006KT 29/17 A3004 RMK A01 T02920168  RH  047%=      5-min Rain = 0
KDO1 210401Z 13006KT 29/17 A3004 RMK A01 T02920168  RH  047%=      5-min Rain = 0
KDO1 210402Z 14005KT 29/17 A3004 RMK A01 T02920168  RH  047%=      5-min Rain = 0
KDO1 210403Z 14004KT 29/17 A3004 RMK A01 T02910168  RH  047%=      5-min Rain = 0
KDO1 210404Z 14005KT 29/17 A3004 RMK A01 T02910168  RH  047%=      5-min Rain = 0
KDO1 210405Z 14005KT 29/17 A3004 RMK A01 T02900168  RH  048%=      5-min Rain = 0
KDO1 210406Z 13005KT 29/17 A3004 RMK A01 T02900168  RH  048%=      5-min Rain = 0
KDO1 210407Z 14005KT 29/17 A3004 RMK A01 T02900168  RH  048%=      5-min Rain = 0
KDO1 210408Z 13005KT 29/17 A3004 RMK A01 T02890168  RH  048%=      5-min Rain = 0
KDO1 210409Z 13005KT 29/17 A3004 RMK A01 T02890168  RH  048%=      5-min Rain = 0
KDO1 210410Z 14004KT 29/17 A3004 RMK A01 T02890169  RH  048%=      5-min Rain = 0
KDO1 210411Z 14005KT 29/17 A3004 RMK A01 T02880168  RH  048%=      5-min Rain = 0
KDO1 210412Z 14005KT 29/17 A3004 RMK A01 T02870168  RH  049%=      5-min Rain = 0
KDO1 210413Z 14006KT 29/17 A3004 RMK A01 T02880169  RH  049%=      5-min Rain = 0
KDO1 210414Z 14006KT 29/17 A3004 RMK A01 T02880169  RH  049%=      5-min Rain = 0
KDO1 210415Z 14006KT 29/17 A3004 RMK A01 T02870169  RH  049%=      5-min Rain = 0
KDO1 210416Z 15006KT 29/17 A3004 RMK A01 T02870169  RH  049%=      5-min Rain = 0
KDO1 210417Z 14006KT 29/17 A3004 RMK A01 T02870169  RH  049%=      5-min Rain = 0
KDO1 210418Z 14006KT 29/17 A3004 RMK A01 T02870170  RH  049%=      5-min Rain = 0
KDO1 210419Z 14006KT 29/17 A3004 RMK A01 T02870170  RH  049%=      5-min Rain = 0
KDO1 210420Z 14006KT 29/17 A3004 RMK A01 T02860169  RH  049%=      5-min Rain = 0
KDO1 210421Z 14006KT 29/17 A3004 RMK A01 T02870170  RH  049%=      5-min Rain = 0
KDO1 210422Z 14006KT 29/17 A3004 RMK A01 T02870170  RH  049%=      5-min Rain = 0
KDO1 210423Z 14006KT 29/17 A3004 RMK A01 T02860170  RH  049%=      5-min Rain = 0
KDO1 210424Z 14006KT 29/17 A3004 RMK A01 T02860170  RH  049%=      5-min Rain = 0
KDO1 210425Z 14006KT 29/17 A3004 RMK A01 T02860170  RH  049%=      5-min Rain = 0
KDO1 210426Z 14005KT 29/17 A3004 RMK A01 T02860170  RH  049%=      5-min Rain = 0
KDO1 210427Z 14005KT 29/17 A3004 RMK A01 T02860170  RH  049%=      5-min Rain = 0
KDO1 210428Z 14005KT 29/17 A3004 RMK A01 T02850170  RH  050%=      5-min Rain = 0
KDO1 210429Z 14005KT 29/17 A3004 RMK A01 T02850170  RH  050%=      5-min Rain = 0
KDO1 210430Z 14005KT 29/17 A3004 RMK A01 T02850170  RH  050%=      5-min Rain = 0
KDO1 210431Z 15005KT 28/17 A3004 RMK A01 T02840170  RH  050%=      5-min Rain = 0
KDO1 210432Z 14005KT 28/17 A3004 RMK A01 T02840170  RH  050%=      5-min Rain = 0
KDO1 210433Z 15005KT 28/17 A3004 RMK A01 T02840170  RH  050%=      5-min Rain = 0
KDO1 210434Z 15005KT 28/17 A3004 RMK A01 T02840170  RH  050%=      5-min Rain = 0
KDO1 210435Z 14005KT 28/17 A3004 RMK A01 T02840170  RH  050%=      5-min Rain = 0
KDO1 210436Z 14006KT 28/17 A3004 RMK A01 T02840170  RH  050%=      5-min Rain = 0
KDO1 210437Z 14005KT 28/17 A3004 RMK A01 T02840170  RH  050%=      5-min Rain = 0
KDO1 210438Z 14005KT 28/17 A3004 RMK A01 T02840170  RH  050%=      5-min Rain = 0
KDO1 210439Z 14005KT 28/17 A3004 RMK A01 T02840170  RH  050%=      5-min Rain = 0
KDO1 210440Z 14005KT 28/17 A3004 RMK A01 T02840170  RH  050%=      5-min Rain = 0
KDO1 210441Z 14006KT 28/17 A3004 RMK A01 T02830170  RH  050%=      5-min Rain = 0
KDO1 210442Z 14006KT 28/17 A3004 RMK A01 T02830170  RH  050%=      5-min Rain = 0
KDO1 210443Z 14005KT 28/17 A3004 RMK A01 T02830171  RH  050%=      5-min Rain = 0
KDO1 210444Z 14005KT 28/17 A3004 RMK A01 T02820170  RH  051%=      5-min Rain = 0
KDO1 210445Z 14006KT 28/17 A3004 RMK A01 T02820170  RH  051%=      5-min Rain = 0
KDO1 210446Z 14006KT 28/17 A3004 RMK A01 T02820171  RH  051%=      5-min Rain = 0
KDO1 210447Z 14005KT 28/17 A3004 RMK A01 T02820170  RH  051%=      5-min Rain = 0
KDO1 210448Z 14006KT 28/17 A3004 RMK A01 T02820170  RH  051%=      5-min Rain = 0
KDO1 210449Z 14006KT 28/17 A3004 RMK A01 T02820170  RH  051%=      5-min Rain = 0
KDO1 210450Z 14006KT 28/17 A3004 RMK A01 T02820170  RH  051%=      5-min Rain = 0
KDO1 210451Z 14005KT 28/17 A3004 RMK A01 T02820170  RH  051%=      5-min Rain = 0
KDO1 210452Z 14006KT 28/17 A3004 RMK A01 T02820170  RH  051%=      5-min Rain = 0
KDO1 210453Z 14005KT 28/17 A3004 RMK A01 T02820170  RH  051%=      5-min Rain = 0
KDO1 210454Z 14005KT 28/17 A3004 RMK A01 T02810170  RH  051%=      5-min Rain = 0
KDO1 210455Z 14006KT 28/17 A3004 RMK A01 T02820170  RH  051%=      5-min Rain = 0
KDO1 210456Z 14005KT 28/17 A3004 RMK A01 T02810170  RH  051%=      5-min Rain = 0
KDO1 210457Z 14005KT 28/17 A3004 RMK A01 T02810169  RH  051%=      5-min Rain = 0
KDO1 210458Z 14005KT 28/17 A3004 RMK A01 T02810170  RH  051%=      5-min Rain = 0
KDO1 210459Z 13006KT 28/17 A3004 RMK A01 T02810169  RH  051%=      5-min Rain = 0

Page generated in 0.1232 seconds.